<?xml version="1.0" encoding="UTF-8" standalone="no" ?>
<gpx xmlns="http://www.topografix.com/GPX/1/1" xmlns:xsi="http://www.w3.org/2001/XMLSchema-instance" xsi:schemaLocation="http://www.topografix.com/GPX/1/1 http://www.topografix.com/GPX/1/1/gpx.xsd" version="1.1" creator="VisuGPX - https://www.visugpx.com">
  <metadata>
    <name>Tal Ar Grip</name>
    <desc><![CDATA[Circuit Geocaching du Tal Ar Grip]]></desc>
  </metadata>
  <trk>
    <name><![CDATA[ACTIVE LOG 001]]></name>
    <trkseg>
      <trkpt lat="48.15535" lon="-4.27415">
        <ele>-3.7078857</ele>
        <time>2013-07-28T09:51:46Z</time>
      </trkpt>
      <trkpt lat="48.1551" lon="-4.27418">
        <ele>-4.1885986</ele>
        <time>2013-07-28T09:52:23Z</time>
      </trkpt>
      <trkpt lat="48.15507" lon="-4.27424">
        <ele>-4.1885986</ele>
        <time>2013-07-28T09:52:27Z</time>
      </trkpt>
      <trkpt lat="48.155" lon="-4.27444">
        <ele>-4.1885986</ele>
        <time>2013-07-28T09:52:42Z</time>
      </trkpt>
      <trkpt lat="48.1549" lon="-4.27465">
        <ele>-5.6304932</ele>
        <time>2013-07-28T09:52:59Z</time>
      </trkpt>
      <trkpt lat="48.15488" lon="-4.27469">
        <ele>-5.6304932</ele>
        <time>2013-07-28T09:53:11Z</time>
      </trkpt>
      <trkpt lat="48.15481" lon="-4.27487">
        <ele>-5.6304932</ele>
        <time>2013-07-28T09:53:25Z</time>
      </trkpt>
      <trkpt lat="48.15474" lon="-4.27503">
        <ele>-5.1499023</ele>
        <time>2013-07-28T09:53:43Z</time>
      </trkpt>
      <trkpt lat="48.15481" lon="-4.27481">
        <ele>-4.1885986</ele>
        <time>2013-07-28T09:54:00Z</time>
      </trkpt>
      <trkpt lat="48.15492" lon="-4.27456">
        <ele>-2.7467041</ele>
        <time>2013-07-28T09:54:18Z</time>
      </trkpt>
      <trkpt lat="48.15498" lon="-4.27433">
        <ele>-1.3046875</ele>
        <time>2013-07-28T09:54:33Z</time>
      </trkpt>
      <trkpt lat="48.15508" lon="-4.27408">
        <ele>0.1374512</ele>
        <time>2013-07-28T09:54:51Z</time>
      </trkpt>
      <trkpt lat="48.15518" lon="-4.27407">
        <ele>1.5793457</ele>
        <time>2013-07-28T09:55:04Z</time>
      </trkpt>
      <trkpt lat="48.1552" lon="-4.27406">
        <ele>1.5793457</ele>
        <time>2013-07-28T09:55:49Z</time>
      </trkpt>
      <trkpt lat="48.15534" lon="-4.27411">
        <ele>1.0986328</ele>
        <time>2013-07-28T09:56:01Z</time>
      </trkpt>
      <trkpt lat="48.15542" lon="-4.27415">
        <ele>1.5793457</ele>
        <time>2013-07-28T09:56:20Z</time>
      </trkpt>
      <trkpt lat="48.1556" lon="-4.27424">
        <ele>3.982666</ele>
        <time>2013-07-28T09:56:40Z</time>
      </trkpt>
      <trkpt lat="48.1558" lon="-4.27432">
        <ele>5.4245605</ele>
        <time>2013-07-28T09:56:59Z</time>
      </trkpt>
      <trkpt lat="48.1559" lon="-4.2744">
        <ele>7.347168</ele>
        <time>2013-07-28T09:57:09Z</time>
      </trkpt>
      <trkpt lat="48.15602" lon="-4.27451">
        <ele>10.711792</ele>
        <time>2013-07-28T09:57:21Z</time>
      </trkpt>
      <trkpt lat="48.15608" lon="-4.27469">
        <ele>15.5184326</ele>
        <time>2013-07-28T09:57:34Z</time>
      </trkpt>
      <trkpt lat="48.15614" lon="-4.27487">
        <ele>14.5570068</ele>
        <time>2013-07-28T09:57:50Z</time>
      </trkpt>
      <trkpt lat="48.1562" lon="-4.27502">
        <ele>14.076416</ele>
        <time>2013-07-28T09:58:03Z</time>
      </trkpt>
      <trkpt lat="48.15622" lon="-4.27521">
        <ele>14.076416</ele>
        <time>2013-07-28T09:58:16Z</time>
      </trkpt>
      <trkpt lat="48.15623" lon="-4.27535">
        <ele>13.1151123</ele>
        <time>2013-07-28T09:58:27Z</time>
      </trkpt>
      <trkpt lat="48.15626" lon="-4.27549">
        <ele>12.6343994</ele>
        <time>2013-07-28T09:58:37Z</time>
      </trkpt>
      <trkpt lat="48.15628" lon="-4.27579">
        <ele>13.1151123</ele>
        <time>2013-07-28T09:58:56Z</time>
      </trkpt>
      <trkpt lat="48.15628" lon="-4.27591">
        <ele>14.076416</ele>
        <time>2013-07-28T09:59:09Z</time>
      </trkpt>
      <trkpt lat="48.15627" lon="-4.27602">
        <ele>15.0377197</ele>
        <time>2013-07-28T09:59:34Z</time>
      </trkpt>
      <trkpt lat="48.15627" lon="-4.27614">
        <ele>14.5570068</ele>
        <time>2013-07-28T09:59:41Z</time>
      </trkpt>
      <trkpt lat="48.15625" lon="-4.27618">
        <ele>15.0377197</ele>
        <time>2013-07-28T10:00:06Z</time>
      </trkpt>
      <trkpt lat="48.15623" lon="-4.27622">
        <ele>15.9990234</ele>
        <time>2013-07-28T10:01:06Z</time>
      </trkpt>
      <trkpt lat="48.15624" lon="-4.27633">
        <ele>15.0377197</ele>
        <time>2013-07-28T10:01:22Z</time>
      </trkpt>
      <trkpt lat="48.15624" lon="-4.27655">
        <ele>14.5570068</ele>
        <time>2013-07-28T10:01:36Z</time>
      </trkpt>
      <trkpt lat="48.1562" lon="-4.2769">
        <ele>14.5570068</ele>
        <time>2013-07-28T10:01:57Z</time>
      </trkpt>
      <trkpt lat="48.15615" lon="-4.27699">
        <ele>15.0377197</ele>
        <time>2013-07-28T10:02:06Z</time>
      </trkpt>
      <trkpt lat="48.15618" lon="-4.27719">
        <ele>14.076416</ele>
        <time>2013-07-28T10:02:20Z</time>
      </trkpt>
      <trkpt lat="48.15625" lon="-4.27739">
        <ele>16.9604492</ele>
        <time>2013-07-28T10:02:35Z</time>
      </trkpt>
      <trkpt lat="48.15622" lon="-4.27748">
        <ele>17.9217529</ele>
        <time>2013-07-28T10:02:52Z</time>
      </trkpt>
      <trkpt lat="48.15624" lon="-4.27765">
        <ele>16.4797363</ele>
        <time>2013-07-28T10:03:06Z</time>
      </trkpt>
      <trkpt lat="48.15627" lon="-4.27787">
        <ele>14.5570068</ele>
        <time>2013-07-28T10:03:21Z</time>
      </trkpt>
      <trkpt lat="48.15625" lon="-4.27785">
        <ele>15.5184326</ele>
        <time>2013-07-28T10:03:45Z</time>
      </trkpt>
      <trkpt lat="48.15627" lon="-4.2781">
        <ele>14.076416</ele>
        <time>2013-07-28T10:04:03Z</time>
      </trkpt>
      <trkpt lat="48.1563" lon="-4.27823">
        <ele>13.1151123</ele>
        <time>2013-07-28T10:04:11Z</time>
      </trkpt>
      <trkpt lat="48.15632" lon="-4.27838">
        <ele>11.6732178</ele>
        <time>2013-07-28T10:04:21Z</time>
      </trkpt>
      <trkpt lat="48.1563" lon="-4.27838">
        <ele>11.1925049</ele>
        <time>2013-07-28T10:04:34Z</time>
      </trkpt>
      <trkpt lat="48.15631" lon="-4.27842">
        <ele>11.1925049</ele>
        <time>2013-07-28T10:04:52Z</time>
      </trkpt>
      <trkpt lat="48.15633" lon="-4.27876">
        <ele>13.5958252</ele>
        <time>2013-07-28T10:05:13Z</time>
      </trkpt>
      <trkpt lat="48.15632" lon="-4.27881">
        <ele>14.076416</ele>
        <time>2013-07-28T10:05:17Z</time>
      </trkpt>
      <trkpt lat="48.15638" lon="-4.27907">
        <ele>13.5958252</ele>
        <time>2013-07-28T10:05:35Z</time>
      </trkpt>
      <trkpt lat="48.15639" lon="-4.27919">
        <ele>13.1151123</ele>
        <time>2013-07-28T10:05:52Z</time>
      </trkpt>
      <trkpt lat="48.15637" lon="-4.27917">
        <ele>13.5958252</ele>
        <time>2013-07-28T10:06:11Z</time>
      </trkpt>
      <trkpt lat="48.15642" lon="-4.27931">
        <ele>12.6343994</ele>
        <time>2013-07-28T10:07:02Z</time>
      </trkpt>
      <trkpt lat="48.15647" lon="-4.27945">
        <ele>10.711792</ele>
        <time>2013-07-28T10:07:11Z</time>
      </trkpt>
      <trkpt lat="48.15648" lon="-4.27953">
        <ele>10.711792</ele>
        <time>2013-07-28T10:07:18Z</time>
      </trkpt>
      <trkpt lat="48.15654" lon="-4.27983">
        <ele>11.1925049</ele>
        <time>2013-07-28T10:07:36Z</time>
      </trkpt>
      <trkpt lat="48.15664" lon="-4.28011">
        <ele>10.2312012</ele>
        <time>2013-07-28T10:08:00Z</time>
      </trkpt>
      <trkpt lat="48.15665" lon="-4.28018">
        <ele>10.2312012</ele>
        <time>2013-07-28T10:08:24Z</time>
      </trkpt>
      <trkpt lat="48.15665" lon="-4.28021">
        <ele>9.2698975</ele>
        <time>2013-07-28T10:11:15Z</time>
      </trkpt>
      <trkpt lat="48.15668" lon="-4.28018">
        <ele>9.2698975</ele>
        <time>2013-07-28T10:11:40Z</time>
      </trkpt>
      <trkpt lat="48.15668" lon="-4.28018">
        <ele>8.7891846</ele>
        <time>2013-07-28T10:11:56Z</time>
      </trkpt>
      <trkpt lat="48.1567" lon="-4.28026">
        <ele>8.3085938</ele>
        <time>2013-07-28T10:12:42Z</time>
      </trkpt>
      <trkpt lat="48.15674" lon="-4.28037">
        <ele>8.3085938</ele>
        <time>2013-07-28T10:12:51Z</time>
      </trkpt>
      <trkpt lat="48.15677" lon="-4.28061">
        <ele>7.8278809</ele>
        <time>2013-07-28T10:13:12Z</time>
      </trkpt>
      <trkpt lat="48.15676" lon="-4.28092">
        <ele>7.8278809</ele>
        <time>2013-07-28T10:13:34Z</time>
      </trkpt>
      <trkpt lat="48.1569" lon="-4.2812">
        <ele>6.8664551</ele>
        <time>2013-07-28T10:13:59Z</time>
      </trkpt>
      <trkpt lat="48.15701" lon="-4.2814">
        <ele>6.3858643</ele>
        <time>2013-07-28T10:14:18Z</time>
      </trkpt>
      <trkpt lat="48.15701" lon="-4.28164">
        <ele>5.9052734</ele>
        <time>2013-07-28T10:14:40Z</time>
      </trkpt>
      <trkpt lat="48.15701" lon="-4.28196">
        <ele>6.8664551</ele>
        <time>2013-07-28T10:15:02Z</time>
      </trkpt>
      <trkpt lat="48.15707" lon="-4.28217">
        <ele>7.347168</ele>
        <time>2013-07-28T10:15:21Z</time>
      </trkpt>
      <trkpt lat="48.15708" lon="-4.28238">
        <ele>6.8664551</ele>
        <time>2013-07-28T10:15:36Z</time>
      </trkpt>
      <trkpt lat="48.15711" lon="-4.28264">
        <ele>7.8278809</ele>
        <time>2013-07-28T10:15:54Z</time>
      </trkpt>
      <trkpt lat="48.15707" lon="-4.28297">
        <ele>11.1925049</ele>
        <time>2013-07-28T10:16:11Z</time>
      </trkpt>
      <trkpt lat="48.15706" lon="-4.28297">
        <ele>11.6732178</ele>
        <time>2013-07-28T10:16:23Z</time>
      </trkpt>
      <trkpt lat="48.15705" lon="-4.28311">
        <ele>11.6732178</ele>
        <time>2013-07-28T10:16:50Z</time>
      </trkpt>
      <trkpt lat="48.157" lon="-4.28338">
        <ele>12.6343994</ele>
        <time>2013-07-28T10:17:07Z</time>
      </trkpt>
      <trkpt lat="48.15698" lon="-4.28344">
        <ele>12.6343994</ele>
        <time>2013-07-28T10:17:25Z</time>
      </trkpt>
      <trkpt lat="48.15696" lon="-4.28356">
        <ele>13.1151123</ele>
        <time>2013-07-28T10:17:45Z</time>
      </trkpt>
      <trkpt lat="48.15685" lon="-4.2837">
        <ele>11.6732178</ele>
        <time>2013-07-28T10:17:59Z</time>
      </trkpt>
      <trkpt lat="48.15674" lon="-4.2838">
        <ele>12.1538086</ele>
        <time>2013-07-28T10:18:09Z</time>
      </trkpt>
      <trkpt lat="48.15658" lon="-4.28395">
        <ele>11.1925049</ele>
        <time>2013-07-28T10:18:25Z</time>
      </trkpt>
      <trkpt lat="48.15645" lon="-4.28408">
        <ele>11.1925049</ele>
        <time>2013-07-28T10:18:41Z</time>
      </trkpt>
      <trkpt lat="48.15634" lon="-4.28427">
        <ele>9.2698975</ele>
        <time>2013-07-28T10:18:57Z</time>
      </trkpt>
      <trkpt lat="48.1562" lon="-4.28453">
        <ele>9.2698975</ele>
        <time>2013-07-28T10:19:17Z</time>
      </trkpt>
      <trkpt lat="48.15612" lon="-4.28485">
        <ele>9.7506104</ele>
        <time>2013-07-28T10:19:38Z</time>
      </trkpt>
      <trkpt lat="48.15611" lon="-4.28516">
        <ele>11.6732178</ele>
        <time>2013-07-28T10:20:00Z</time>
      </trkpt>
      <trkpt lat="48.15612" lon="-4.28513">
        <ele>12.1538086</ele>
        <time>2013-07-28T10:20:21Z</time>
      </trkpt>
      <trkpt lat="48.15611" lon="-4.28513">
        <ele>13.1151123</ele>
        <time>2013-07-28T10:21:09Z</time>
      </trkpt>
      <trkpt lat="48.15609" lon="-4.28532">
        <ele>13.1151123</ele>
        <time>2013-07-28T10:21:32Z</time>
      </trkpt>
      <trkpt lat="48.1561" lon="-4.2854">
        <ele>13.1151123</ele>
        <time>2013-07-28T10:21:48Z</time>
      </trkpt>
      <trkpt lat="48.15608" lon="-4.28548">
        <ele>12.6343994</ele>
        <time>2013-07-28T10:22:07Z</time>
      </trkpt>
      <trkpt lat="48.15607" lon="-4.2856">
        <ele>13.1151123</ele>
        <time>2013-07-28T10:22:15Z</time>
      </trkpt>
      <trkpt lat="48.15606" lon="-4.28567">
        <ele>13.1151123</ele>
        <time>2013-07-28T10:22:22Z</time>
      </trkpt>
      <trkpt lat="48.15608" lon="-4.28533">
        <ele>12.6343994</ele>
        <time>2013-07-28T10:22:46Z</time>
      </trkpt>
      <trkpt lat="48.15608" lon="-4.28538">
        <ele>11.6732178</ele>
        <time>2013-07-28T10:23:00Z</time>
      </trkpt>
      <trkpt lat="48.15609" lon="-4.28538">
        <ele>11.6732178</ele>
        <time>2013-07-28T10:23:31Z</time>
      </trkpt>
      <trkpt lat="48.15609" lon="-4.2854">
        <ele>11.6732178</ele>
        <time>2013-07-28T10:24:00Z</time>
      </trkpt>
      <trkpt lat="48.15612" lon="-4.28544">
        <ele>12.1538086</ele>
        <time>2013-07-28T10:24:13Z</time>
      </trkpt>
      <trkpt lat="48.15609" lon="-4.28562">
        <ele>12.1538086</ele>
        <time>2013-07-28T10:24:24Z</time>
      </trkpt>
      <trkpt lat="48.15608" lon="-4.28541">
        <ele>12.6343994</ele>
        <time>2013-07-28T10:24:45Z</time>
      </trkpt>
      <trkpt lat="48.1561" lon="-4.28541">
        <ele>12.6343994</ele>
        <time>2013-07-28T10:24:57Z</time>
      </trkpt>
      <trkpt lat="48.15609" lon="-4.28541">
        <ele>12.6343994</ele>
        <time>2013-07-28T10:24:59Z</time>
      </trkpt>
      <trkpt lat="48.15609" lon="-4.28539">
        <ele>12.1538086</ele>
        <time>2013-07-28T10:25:10Z</time>
      </trkpt>
      <trkpt lat="48.1561" lon="-4.28536">
        <ele>12.6343994</ele>
        <time>2013-07-28T10:25:20Z</time>
      </trkpt>
      <trkpt lat="48.15609" lon="-4.28534">
        <ele>11.6732178</ele>
        <time>2013-07-28T10:25:33Z</time>
      </trkpt>
      <trkpt lat="48.1561" lon="-4.28543">
        <ele>12.1538086</ele>
        <time>2013-07-28T10:25:49Z</time>
      </trkpt>
      <trkpt lat="48.15609" lon="-4.28543">
        <ele>12.1538086</ele>
        <time>2013-07-28T10:25:58Z</time>
      </trkpt>
      <trkpt lat="48.15608" lon="-4.28532">
        <ele>11.6732178</ele>
        <time>2013-07-28T10:26:06Z</time>
      </trkpt>
      <trkpt lat="48.15602" lon="-4.28533">
        <ele>10.711792</ele>
        <time>2013-07-28T10:26:14Z</time>
      </trkpt>
      <trkpt lat="48.15593" lon="-4.28531">
        <ele>6.3858643</ele>
        <time>2013-07-28T10:26:32Z</time>
      </trkpt>
      <trkpt lat="48.15601" lon="-4.28531">
        <ele>8.7891846</ele>
        <time>2013-07-28T10:26:45Z</time>
      </trkpt>
      <trkpt lat="48.15606" lon="-4.28529">
        <ele>10.2312012</ele>
        <time>2013-07-28T10:26:51Z</time>
      </trkpt>
      <trkpt lat="48.1561" lon="-4.28536">
        <ele>11.1925049</ele>
        <time>2013-07-28T10:27:00Z</time>
      </trkpt>
      <trkpt lat="48.1561" lon="-4.28552">
        <ele>11.6732178</ele>
        <time>2013-07-28T10:27:20Z</time>
      </trkpt>
      <trkpt lat="48.15609" lon="-4.2855">
        <ele>11.6732178</ele>
        <time>2013-07-28T10:27:43Z</time>
      </trkpt>
      <trkpt lat="48.1561" lon="-4.28552">
        <ele>11.6732178</ele>
        <time>2013-07-28T10:28:05Z</time>
      </trkpt>
      <trkpt lat="48.15609" lon="-4.28561">
        <ele>11.1925049</ele>
        <time>2013-07-28T10:28:31Z</time>
      </trkpt>
      <trkpt lat="48.15605" lon="-4.28583">
        <ele>13.1151123</ele>
        <time>2013-07-28T10:28:45Z</time>
      </trkpt>
      <trkpt lat="48.15606" lon="-4.28584">
        <ele>14.076416</ele>
        <time>2013-07-28T10:29:02Z</time>
      </trkpt>
      <trkpt lat="48.15606" lon="-4.28584">
        <ele>13.5958252</ele>
        <time>2013-07-28T10:29:12Z</time>
      </trkpt>
      <trkpt lat="48.15607" lon="-4.28599">
        <ele>12.6343994</ele>
        <time>2013-07-28T10:29:24Z</time>
      </trkpt>
      <trkpt lat="48.1561" lon="-4.28625">
        <ele>12.1538086</ele>
        <time>2013-07-28T10:29:45Z</time>
      </trkpt>
      <trkpt lat="48.15614" lon="-4.28637">
        <ele>12.1538086</ele>
        <time>2013-07-28T10:30:06Z</time>
      </trkpt>
      <trkpt lat="48.1562" lon="-4.28648">
        <ele>12.1538086</ele>
        <time>2013-07-28T10:30:18Z</time>
      </trkpt>
      <trkpt lat="48.15622" lon="-4.2865">
        <ele>12.1538086</ele>
        <time>2013-07-28T10:30:22Z</time>
      </trkpt>
      <trkpt lat="48.15626" lon="-4.28654">
        <ele>11.6732178</ele>
        <time>2013-07-28T10:30:37Z</time>
      </trkpt>
      <trkpt lat="48.15625" lon="-4.28655">
        <ele>12.1538086</ele>
        <time>2013-07-28T10:30:55Z</time>
      </trkpt>
      <trkpt lat="48.15624" lon="-4.28656">
        <ele>12.6343994</ele>
        <time>2013-07-28T10:31:18Z</time>
      </trkpt>
      <trkpt lat="48.15625" lon="-4.28656">
        <ele>13.1151123</ele>
        <time>2013-07-28T10:33:51Z</time>
      </trkpt>
      <trkpt lat="48.15629" lon="-4.28653">
        <ele>16.4797363</ele>
        <time>2013-07-28T10:34:07Z</time>
      </trkpt>
      <trkpt lat="48.15631" lon="-4.28658">
        <ele>17.4411621</ele>
        <time>2013-07-28T10:34:24Z</time>
      </trkpt>
      <trkpt lat="48.15633" lon="-4.28663">
        <ele>16.9604492</ele>
        <time>2013-07-28T10:34:35Z</time>
      </trkpt>
      <trkpt lat="48.15648" lon="-4.28679">
        <ele>10.2312012</ele>
        <time>2013-07-28T10:34:51Z</time>
      </trkpt>
      <trkpt lat="48.15658" lon="-4.28691">
        <ele>11.6732178</ele>
        <time>2013-07-28T10:35:04Z</time>
      </trkpt>
      <trkpt lat="48.1567" lon="-4.28701">
        <ele>12.1538086</ele>
        <time>2013-07-28T10:35:19Z</time>
      </trkpt>
      <trkpt lat="48.15671" lon="-4.28702">
        <ele>11.6732178</ele>
        <time>2013-07-28T10:35:33Z</time>
      </trkpt>
      <trkpt lat="48.15676" lon="-4.28706">
        <ele>10.2312012</ele>
        <time>2013-07-28T10:35:46Z</time>
      </trkpt>
      <trkpt lat="48.15692" lon="-4.28726">
        <ele>10.711792</ele>
        <time>2013-07-28T10:36:04Z</time>
      </trkpt>
      <trkpt lat="48.15694" lon="-4.28728">
        <ele>11.1925049</ele>
        <time>2013-07-28T10:36:07Z</time>
      </trkpt>
      <trkpt lat="48.157" lon="-4.28747">
        <ele>11.1925049</ele>
        <time>2013-07-28T10:36:24Z</time>
      </trkpt>
      <trkpt lat="48.15713" lon="-4.28765">
        <ele>11.1925049</ele>
        <time>2013-07-28T10:36:39Z</time>
      </trkpt>
      <trkpt lat="48.15728" lon="-4.28782">
        <ele>11.1925049</ele>
        <time>2013-07-28T10:36:57Z</time>
      </trkpt>
      <trkpt lat="48.15731" lon="-4.28783">
        <ele>11.1925049</ele>
        <time>2013-07-28T10:37:14Z</time>
      </trkpt>
      <trkpt lat="48.15731" lon="-4.28783">
        <ele>11.1925049</ele>
        <time>2013-07-28T10:37:26Z</time>
      </trkpt>
      <trkpt lat="48.15736" lon="-4.28784">
        <ele>11.1925049</ele>
        <time>2013-07-28T10:37:32Z</time>
      </trkpt>
      <trkpt lat="48.15746" lon="-4.28795">
        <ele>10.711792</ele>
        <time>2013-07-28T10:37:42Z</time>
      </trkpt>
      <trkpt lat="48.15757" lon="-4.28812">
        <ele>11.1925049</ele>
        <time>2013-07-28T10:37:57Z</time>
      </trkpt>
      <trkpt lat="48.15761" lon="-4.28815">
        <ele>10.711792</ele>
        <time>2013-07-28T10:38:10Z</time>
      </trkpt>
      <trkpt lat="48.1576" lon="-4.28815">
        <ele>10.711792</ele>
        <time>2013-07-28T10:38:32Z</time>
      </trkpt>
      <trkpt lat="48.15761" lon="-4.28816">
        <ele>10.711792</ele>
        <time>2013-07-28T10:39:00Z</time>
      </trkpt>
      <trkpt lat="48.15759" lon="-4.28819">
        <ele>11.1925049</ele>
        <time>2013-07-28T10:39:15Z</time>
      </trkpt>
      <trkpt lat="48.15768" lon="-4.28829">
        <ele>11.1925049</ele>
        <time>2013-07-28T10:39:32Z</time>
      </trkpt>
      <trkpt lat="48.15781" lon="-4.28833">
        <ele>11.6732178</ele>
        <time>2013-07-28T10:39:46Z</time>
      </trkpt>
      <trkpt lat="48.15795" lon="-4.28825">
        <ele>13.1151123</ele>
        <time>2013-07-28T10:40:05Z</time>
      </trkpt>
      <trkpt lat="48.15797" lon="-4.28824">
        <ele>13.5958252</ele>
        <time>2013-07-28T10:40:07Z</time>
      </trkpt>
      <trkpt lat="48.15809" lon="-4.2881">
        <ele>15.5184326</ele>
        <time>2013-07-28T10:40:23Z</time>
      </trkpt>
      <trkpt lat="48.15822" lon="-4.28794">
        <ele>17.4411621</ele>
        <time>2013-07-28T10:40:40Z</time>
      </trkpt>
      <trkpt lat="48.15826" lon="-4.28791">
        <ele>17.9217529</ele>
        <time>2013-07-28T10:40:44Z</time>
      </trkpt>
      <trkpt lat="48.1584" lon="-4.28777">
        <ele>19.3637695</ele>
        <time>2013-07-28T10:41:00Z</time>
      </trkpt>
      <trkpt lat="48.15845" lon="-4.28772">
        <ele>18.8830566</ele>
        <time>2013-07-28T10:41:12Z</time>
      </trkpt>
      <trkpt lat="48.15855" lon="-4.28762">
        <ele>19.3637695</ele>
        <time>2013-07-28T10:41:33Z</time>
      </trkpt>
      <trkpt lat="48.1587" lon="-4.2875">
        <ele>20.3249512</ele>
        <time>2013-07-28T10:41:49Z</time>
      </trkpt>
      <trkpt lat="48.15883" lon="-4.28738">
        <ele>20.3249512</ele>
        <time>2013-07-28T10:42:03Z</time>
      </trkpt>
      <trkpt lat="48.15887" lon="-4.28732">
        <ele>17.4411621</ele>
        <time>2013-07-28T10:42:23Z</time>
      </trkpt>
      <trkpt lat="48.15888" lon="-4.28733">
        <ele>16.9604492</ele>
        <time>2013-07-28T10:43:45Z</time>
      </trkpt>
      <trkpt lat="48.15892" lon="-4.28732">
        <ele>15.9990234</ele>
        <time>2013-07-28T10:43:50Z</time>
      </trkpt>
      <trkpt lat="48.15898" lon="-4.28731">
        <ele>15.0377197</ele>
        <time>2013-07-28T10:43:55Z</time>
      </trkpt>
      <trkpt lat="48.15914" lon="-4.28728">
        <ele>13.5958252</ele>
        <time>2013-07-28T10:44:08Z</time>
      </trkpt>
      <trkpt lat="48.15921" lon="-4.2873">
        <ele>12.6343994</ele>
        <time>2013-07-28T10:44:14Z</time>
      </trkpt>
      <trkpt lat="48.15906" lon="-4.28756">
        <ele>8.7891846</ele>
        <time>2013-07-28T10:44:31Z</time>
      </trkpt>
      <trkpt lat="48.15895" lon="-4.2878">
        <ele>5.9052734</ele>
        <time>2013-07-28T10:44:49Z</time>
      </trkpt>
      <trkpt lat="48.15895" lon="-4.28783">
        <ele>5.4245605</ele>
        <time>2013-07-28T10:44:51Z</time>
      </trkpt>
      <trkpt lat="48.15895" lon="-4.28793">
        <ele>4.9438477</ele>
        <time>2013-07-28T10:45:04Z</time>
      </trkpt>
      <trkpt lat="48.15894" lon="-4.28794">
        <ele>3.982666</ele>
        <time>2013-07-28T10:45:19Z</time>
      </trkpt>
      <trkpt lat="48.15886" lon="-4.28808">
        <ele>0.618042</ele>
        <time>2013-07-28T10:45:32Z</time>
      </trkpt>
      <trkpt lat="48.15873" lon="-4.28812">
        <ele>-1.7852783</ele>
        <time>2013-07-28T10:45:48Z</time>
      </trkpt>
      <trkpt lat="48.15869" lon="-4.28821">
        <ele>-2.2659912</ele>
        <time>2013-07-28T10:45:58Z</time>
      </trkpt>
      <trkpt lat="48.15862" lon="-4.28822">
        <ele>-4.1885986</ele>
        <time>2013-07-28T10:46:16Z</time>
      </trkpt>
      <trkpt lat="48.15863" lon="-4.28811">
        <ele>-3.7078857</ele>
        <time>2013-07-28T10:46:42Z</time>
      </trkpt>
      <trkpt lat="48.15867" lon="-4.28805">
        <ele>-2.7467041</ele>
        <time>2013-07-28T10:48:18Z</time>
      </trkpt>
      <trkpt lat="48.15858" lon="-4.28818">
        <ele>-2.7467041</ele>
        <time>2013-07-28T10:49:21Z</time>
      </trkpt>
      <trkpt lat="48.15862" lon="-4.2881">
        <ele>-2.2659912</ele>
        <time>2013-07-28T10:49:40Z</time>
      </trkpt>
      <trkpt lat="48.15864" lon="-4.28812">
        <ele>-6.1112061</ele>
        <time>2013-07-28T11:04:29Z</time>
      </trkpt>
      <trkpt lat="48.15871" lon="-4.28809">
        <ele>-8.0339355</ele>
        <time>2013-07-28T11:04:47Z</time>
      </trkpt>
      <trkpt lat="48.15854" lon="-4.28804">
        <ele>-15.7243652</ele>
        <time>2013-07-28T11:05:13Z</time>
      </trkpt>
      <trkpt lat="48.15848" lon="-4.288">
        <ele>-22.4536133</ele>
        <time>2013-07-28T11:06:00Z</time>
      </trkpt>
      <trkpt lat="48.15861" lon="-4.2881">
        <ele>-12.8404541</ele>
        <time>2013-07-28T11:07:48Z</time>
      </trkpt>
      <trkpt lat="48.15867" lon="-4.28812">
        <ele>-10.9178467</ele>
        <time>2013-07-28T11:09:26Z</time>
      </trkpt>
      <trkpt lat="48.15869" lon="-4.28818">
        <ele>-9.956543</ele>
        <time>2013-07-28T11:09:42Z</time>
      </trkpt>
      <trkpt lat="48.15884" lon="-4.28843">
        <ele>-8.5146484</ele>
        <time>2013-07-28T11:10:05Z</time>
      </trkpt>
      <trkpt lat="48.1589" lon="-4.28849">
        <ele>-8.0339355</ele>
        <time>2013-07-28T11:10:28Z</time>
      </trkpt>
      <trkpt lat="48.15899" lon="-4.28863">
        <ele>-8.0339355</ele>
        <time>2013-07-28T11:10:44Z</time>
      </trkpt>
      <trkpt lat="48.15915" lon="-4.289">
        <ele>-6.1112061</ele>
        <time>2013-07-28T11:11:14Z</time>
      </trkpt>
      <trkpt lat="48.15916" lon="-4.28902">
        <ele>-6.1112061</ele>
        <time>2013-07-28T11:11:16Z</time>
      </trkpt>
      <trkpt lat="48.15928" lon="-4.28924">
        <ele>-4.1885986</ele>
        <time>2013-07-28T11:11:35Z</time>
      </trkpt>
      <trkpt lat="48.15928" lon="-4.28938">
        <ele>-2.7467041</ele>
        <time>2013-07-28T11:11:53Z</time>
      </trkpt>
      <trkpt lat="48.15924" lon="-4.28951">
        <ele>-2.2659912</ele>
        <time>2013-07-28T11:12:09Z</time>
      </trkpt>
      <trkpt lat="48.1592" lon="-4.28964">
        <ele>-2.2659912</ele>
        <time>2013-07-28T11:12:33Z</time>
      </trkpt>
      <trkpt lat="48.15921" lon="-4.28968">
        <ele>-1.7852783</ele>
        <time>2013-07-28T11:14:09Z</time>
      </trkpt>
      <trkpt lat="48.15909" lon="-4.28967">
        <ele>-1.7852783</ele>
        <time>2013-07-28T11:15:46Z</time>
      </trkpt>
      <trkpt lat="48.15918" lon="-4.28963">
        <ele>-0.3433838</ele>
        <time>2013-07-28T11:16:07Z</time>
      </trkpt>
      <trkpt lat="48.15923" lon="-4.28965">
        <ele>1.5793457</ele>
        <time>2013-07-28T11:16:56Z</time>
      </trkpt>
      <trkpt lat="48.15921" lon="-4.28953">
        <ele>3.0212402</ele>
        <time>2013-07-28T11:17:43Z</time>
      </trkpt>
      <trkpt lat="48.1593" lon="-4.28939">
        <ele>3.0212402</ele>
        <time>2013-07-28T11:18:03Z</time>
      </trkpt>
      <trkpt lat="48.15922" lon="-4.28919">
        <ele>2.5406494</ele>
        <time>2013-07-28T11:18:24Z</time>
      </trkpt>
      <trkpt lat="48.15915" lon="-4.28906">
        <ele>2.0600586</ele>
        <time>2013-07-28T11:18:39Z</time>
      </trkpt>
      <trkpt lat="48.15904" lon="-4.2888">
        <ele>1.0986328</ele>
        <time>2013-07-28T11:19:01Z</time>
      </trkpt>
      <trkpt lat="48.15892" lon="-4.28855">
        <ele>1.0986328</ele>
        <time>2013-07-28T11:19:24Z</time>
      </trkpt>
      <trkpt lat="48.15882" lon="-4.28843">
        <ele>0.618042</ele>
        <time>2013-07-28T11:19:42Z</time>
      </trkpt>
      <trkpt lat="48.15872" lon="-4.28839">
        <ele>-0.3433838</ele>
        <time>2013-07-28T11:20:47Z</time>
      </trkpt>
      <trkpt lat="48.15868" lon="-4.28842">
        <ele>-0.8240967</ele>
        <time>2013-07-28T11:20:51Z</time>
      </trkpt>
      <trkpt lat="48.15863" lon="-4.28847">
        <ele>-1.3046875</ele>
        <time>2013-07-28T11:20:56Z</time>
      </trkpt>
      <trkpt lat="48.15859" lon="-4.2886">
        <ele>-2.2659912</ele>
        <time>2013-07-28T11:21:10Z</time>
      </trkpt>
      <trkpt lat="48.15854" lon="-4.28861">
        <ele>-3.2272949</ele>
        <time>2013-07-28T11:21:30Z</time>
      </trkpt>
      <trkpt lat="48.15851" lon="-4.2886">
        <ele>-3.7078857</ele>
        <time>2013-07-28T11:21:59Z</time>
      </trkpt>
      <trkpt lat="48.15852" lon="-4.28855">
        <ele>-3.2272949</ele>
        <time>2013-07-28T11:22:16Z</time>
      </trkpt>
      <trkpt lat="48.1585" lon="-4.28848">
        <ele>-3.7078857</ele>
        <time>2013-07-28T11:22:40Z</time>
      </trkpt>
      <trkpt lat="48.15847" lon="-4.28826">
        <ele>-4.6693115</ele>
        <time>2013-07-28T11:22:54Z</time>
      </trkpt>
      <trkpt lat="48.15853" lon="-4.28809">
        <ele>-5.1499023</ele>
        <time>2013-07-28T11:23:15Z</time>
      </trkpt>
      <trkpt lat="48.15856" lon="-4.2882">
        <ele>-5.6304932</ele>
        <time>2013-07-28T11:23:45Z</time>
      </trkpt>
      <trkpt lat="48.15858" lon="-4.28814">
        <ele>-5.6304932</ele>
        <time>2013-07-28T11:24:11Z</time>
      </trkpt>
      <trkpt lat="48.15865" lon="-4.28807">
        <ele>-6.1112061</ele>
        <time>2013-07-28T11:24:44Z</time>
      </trkpt>
      <trkpt lat="48.15864" lon="-4.28806">
        <ele>-6.5919189</ele>
        <time>2013-07-28T11:25:04Z</time>
      </trkpt>
      <trkpt lat="48.15861" lon="-4.28807">
        <ele>-5.6304932</ele>
        <time>2013-07-28T11:26:42Z</time>
      </trkpt>
      <trkpt lat="48.15869" lon="-4.28807">
        <ele>-8.9952393</ele>
        <time>2013-07-28T11:30:37Z</time>
      </trkpt>
      <trkpt lat="48.15865" lon="-4.28813">
        <ele>-11.3984375</ele>
        <time>2013-07-28T11:31:20Z</time>
      </trkpt>
      <trkpt lat="48.15867" lon="-4.28819">
        <ele>-11.3984375</ele>
        <time>2013-07-28T11:32:32Z</time>
      </trkpt>
      <trkpt lat="48.15871" lon="-4.2881">
        <ele>-10.4372559</ele>
        <time>2013-07-28T11:34:45Z</time>
      </trkpt>
      <trkpt lat="48.15882" lon="-4.28803">
        <ele>-8.9952393</ele>
        <time>2013-07-28T11:34:53Z</time>
      </trkpt>
      <trkpt lat="48.15894" lon="-4.28784">
        <ele>-5.1499023</ele>
        <time>2013-07-28T11:35:11Z</time>
      </trkpt>
      <trkpt lat="48.15894" lon="-4.28781">
        <ele>-4.1885986</ele>
        <time>2013-07-28T11:35:13Z</time>
      </trkpt>
      <trkpt lat="48.159" lon="-4.28763">
        <ele>-0.3433838</ele>
        <time>2013-07-28T11:35:27Z</time>
      </trkpt>
      <trkpt lat="48.15901" lon="-4.2876">
        <ele>0.618042</ele>
        <time>2013-07-28T11:35:30Z</time>
      </trkpt>
      <trkpt lat="48.15912" lon="-4.28738">
        <ele>4.9438477</ele>
        <time>2013-07-28T11:35:49Z</time>
      </trkpt>
      <trkpt lat="48.15917" lon="-4.28731">
        <ele>8.3085938</ele>
        <time>2013-07-28T11:35:56Z</time>
      </trkpt>
      <trkpt lat="48.15926" lon="-4.28721">
        <ele>9.2698975</ele>
        <time>2013-07-28T11:36:05Z</time>
      </trkpt>
      <trkpt lat="48.15936" lon="-4.28719">
        <ele>10.2312012</ele>
        <time>2013-07-28T11:36:14Z</time>
      </trkpt>
      <trkpt lat="48.15942" lon="-4.28723">
        <ele>9.2698975</ele>
        <time>2013-07-28T11:36:28Z</time>
      </trkpt>
      <trkpt lat="48.15943" lon="-4.28724">
        <ele>8.7891846</ele>
        <time>2013-07-28T11:36:30Z</time>
      </trkpt>
      <trkpt lat="48.15955" lon="-4.2874">
        <ele>8.3085938</ele>
        <time>2013-07-28T11:36:44Z</time>
      </trkpt>
      <trkpt lat="48.15963" lon="-4.28763">
        <ele>6.3858643</ele>
        <time>2013-07-28T11:36:59Z</time>
      </trkpt>
      <trkpt lat="48.15975" lon="-4.28783">
        <ele>6.3858643</ele>
        <time>2013-07-28T11:37:16Z</time>
      </trkpt>
      <trkpt lat="48.15984" lon="-4.28802">
        <ele>6.8664551</ele>
        <time>2013-07-28T11:37:32Z</time>
      </trkpt>
      <trkpt lat="48.15991" lon="-4.28824">
        <ele>6.8664551</ele>
        <time>2013-07-28T11:37:46Z</time>
      </trkpt>
      <trkpt lat="48.16003" lon="-4.28844">
        <ele>7.347168</ele>
        <time>2013-07-28T11:38:03Z</time>
      </trkpt>
      <trkpt lat="48.1601" lon="-4.28859">
        <ele>6.8664551</ele>
        <time>2013-07-28T11:38:17Z</time>
      </trkpt>
      <trkpt lat="48.16017" lon="-4.28875">
        <ele>6.8664551</ele>
        <time>2013-07-28T11:38:28Z</time>
      </trkpt>
      <trkpt lat="48.16024" lon="-4.28892">
        <ele>7.8278809</ele>
        <time>2013-07-28T11:38:41Z</time>
      </trkpt>
      <trkpt lat="48.16033" lon="-4.28908">
        <ele>9.2698975</ele>
        <time>2013-07-28T11:38:54Z</time>
      </trkpt>
      <trkpt lat="48.1604" lon="-4.28922">
        <ele>9.7506104</ele>
        <time>2013-07-28T11:39:06Z</time>
      </trkpt>
      <trkpt lat="48.16043" lon="-4.28931">
        <ele>10.2312012</ele>
        <time>2013-07-28T11:39:14Z</time>
      </trkpt>
      <trkpt lat="48.16052" lon="-4.2895">
        <ele>11.1925049</ele>
        <time>2013-07-28T11:39:32Z</time>
      </trkpt>
      <trkpt lat="48.16062" lon="-4.2897">
        <ele>10.711792</ele>
        <time>2013-07-28T11:39:49Z</time>
      </trkpt>
      <trkpt lat="48.1607" lon="-4.28989">
        <ele>12.6343994</ele>
        <time>2013-07-28T11:40:05Z</time>
      </trkpt>
      <trkpt lat="48.16071" lon="-4.28995">
        <ele>15.5184326</ele>
        <time>2013-07-28T11:40:25Z</time>
      </trkpt>
      <trkpt lat="48.16071" lon="-4.28995">
        <ele>15.0377197</ele>
        <time>2013-07-28T11:40:30Z</time>
      </trkpt>
      <trkpt lat="48.16075" lon="-4.28996">
        <ele>15.0377197</ele>
        <time>2013-07-28T11:40:33Z</time>
      </trkpt>
      <trkpt lat="48.16084" lon="-4.29016">
        <ele>17.9217529</ele>
        <time>2013-07-28T11:40:51Z</time>
      </trkpt>
      <trkpt lat="48.16086" lon="-4.29018">
        <ele>18.4023438</ele>
        <time>2013-07-28T11:40:55Z</time>
      </trkpt>
      <trkpt lat="48.16089" lon="-4.29024">
        <ele>19.8443604</ele>
        <time>2013-07-28T11:41:01Z</time>
      </trkpt>
      <trkpt lat="48.16094" lon="-4.2903">
        <ele>22.7282715</ele>
        <time>2013-07-28T11:41:14Z</time>
      </trkpt>
      <trkpt lat="48.16096" lon="-4.2904">
        <ele>25.1317139</ele>
        <time>2013-07-28T11:41:20Z</time>
      </trkpt>
      <trkpt lat="48.16094" lon="-4.29053">
        <ele>26.5736084</ele>
        <time>2013-07-28T11:41:30Z</time>
      </trkpt>
      <trkpt lat="48.16091" lon="-4.29059">
        <ele>26.0928955</ele>
        <time>2013-07-28T11:41:34Z</time>
      </trkpt>
      <trkpt lat="48.16081" lon="-4.29081">
        <ele>26.0928955</ele>
        <time>2013-07-28T11:41:51Z</time>
      </trkpt>
      <trkpt lat="48.16076" lon="-4.29092">
        <ele>25.6123047</ele>
        <time>2013-07-28T11:42:02Z</time>
      </trkpt>
      <trkpt lat="48.16072" lon="-4.29099">
        <ele>26.0928955</ele>
        <time>2013-07-28T11:42:11Z</time>
      </trkpt>
      <trkpt lat="48.16071" lon="-4.291">
        <ele>26.0928955</ele>
        <time>2013-07-28T11:42:13Z</time>
      </trkpt>
      <trkpt lat="48.1606" lon="-4.29124">
        <ele>26.0928955</ele>
        <time>2013-07-28T11:42:30Z</time>
      </trkpt>
      <trkpt lat="48.16055" lon="-4.29126">
        <ele>27.0543213</ele>
        <time>2013-07-28T11:42:44Z</time>
      </trkpt>
      <trkpt lat="48.16049" lon="-4.29137">
        <ele>28.0155029</ele>
        <time>2013-07-28T11:42:52Z</time>
      </trkpt>
      <trkpt lat="48.16044" lon="-4.29145">
        <ele>27.0543213</ele>
        <time>2013-07-28T11:42:57Z</time>
      </trkpt>
      <trkpt lat="48.16031" lon="-4.2917">
        <ele>27.0543213</ele>
        <time>2013-07-28T11:43:16Z</time>
      </trkpt>
      <trkpt lat="48.16026" lon="-4.29173">
        <ele>27.5349121</ele>
        <time>2013-07-28T11:43:27Z</time>
      </trkpt>
      <trkpt lat="48.16026" lon="-4.29173">
        <ele>27.5349121</ele>
        <time>2013-07-28T11:43:28Z</time>
      </trkpt>
      <trkpt lat="48.16015" lon="-4.29166">
        <ele>25.6123047</ele>
        <time>2013-07-28T11:43:40Z</time>
      </trkpt>
      <trkpt lat="48.16005" lon="-4.29165">
        <ele>24.1702881</ele>
        <time>2013-07-28T11:43:50Z</time>
      </trkpt>
      <trkpt lat="48.15998" lon="-4.29167">
        <ele>22.7282715</ele>
        <time>2013-07-28T11:43:58Z</time>
      </trkpt>
      <trkpt lat="48.15992" lon="-4.29169">
        <ele>22.2475586</ele>
        <time>2013-07-28T11:44:03Z</time>
      </trkpt>
      <trkpt lat="48.15988" lon="-4.29173">
        <ele>20.8056641</ele>
        <time>2013-07-28T11:44:07Z</time>
      </trkpt>
      <trkpt lat="48.15976" lon="-4.29182">
        <ele>17.4411621</ele>
        <time>2013-07-28T11:44:20Z</time>
      </trkpt>
      <trkpt lat="48.15968" lon="-4.29192">
        <ele>14.5570068</ele>
        <time>2013-07-28T11:44:29Z</time>
      </trkpt>
      <trkpt lat="48.15952" lon="-4.292">
        <ele>10.711792</ele>
        <time>2013-07-28T11:44:44Z</time>
      </trkpt>
      <trkpt lat="48.15951" lon="-4.29202">
        <ele>11.1925049</ele>
        <time>2013-07-28T11:44:53Z</time>
      </trkpt>
      <trkpt lat="48.1594" lon="-4.29213">
        <ele>9.7506104</ele>
        <time>2013-07-28T11:45:04Z</time>
      </trkpt>
      <trkpt lat="48.15925" lon="-4.29226">
        <ele>6.8664551</ele>
        <time>2013-07-28T11:45:20Z</time>
      </trkpt>
      <trkpt lat="48.15913" lon="-4.29244">
        <ele>9.7506104</ele>
        <time>2013-07-28T11:45:38Z</time>
      </trkpt>
      <trkpt lat="48.15901" lon="-4.29248">
        <ele>9.7506104</ele>
        <time>2013-07-28T11:45:53Z</time>
      </trkpt>
      <trkpt lat="48.15886" lon="-4.29246">
        <ele>6.8664551</ele>
        <time>2013-07-28T11:46:09Z</time>
      </trkpt>
      <trkpt lat="48.15866" lon="-4.2924">
        <ele>0.618042</ele>
        <time>2013-07-28T11:46:35Z</time>
      </trkpt>
      <trkpt lat="48.15863" lon="-4.29233">
        <ele>-0.3433838</ele>
        <time>2013-07-28T11:47:38Z</time>
      </trkpt>
      <trkpt lat="48.15863" lon="-4.29233">
        <ele>0.1374512</ele>
        <time>2013-07-28T11:50:37Z</time>
      </trkpt>
      <trkpt lat="48.15871" lon="-4.29232">
        <ele>3.5019531</ele>
        <time>2013-07-28T11:51:02Z</time>
      </trkpt>
      <trkpt lat="48.15877" lon="-4.29231">
        <ele>5.9052734</ele>
        <time>2013-07-28T11:51:20Z</time>
      </trkpt>
      <trkpt lat="48.15886" lon="-4.29226">
        <ele>8.3085938</ele>
        <time>2013-07-28T11:51:30Z</time>
      </trkpt>
      <trkpt lat="48.15896" lon="-4.29239">
        <ele>11.6732178</ele>
        <time>2013-07-28T11:51:50Z</time>
      </trkpt>
      <trkpt lat="48.15905" lon="-4.29248">
        <ele>14.076416</ele>
        <time>2013-07-28T11:52:04Z</time>
      </trkpt>
      <trkpt lat="48.15897" lon="-4.29269">
        <ele>16.9604492</ele>
        <time>2013-07-28T11:52:20Z</time>
      </trkpt>
      <trkpt lat="48.15896" lon="-4.29272">
        <ele>17.4411621</ele>
        <time>2013-07-28T11:52:23Z</time>
      </trkpt>
      <trkpt lat="48.15889" lon="-4.29292">
        <ele>22.2475586</ele>
        <time>2013-07-28T11:52:39Z</time>
      </trkpt>
      <trkpt lat="48.15882" lon="-4.2931">
        <ele>26.0928955</ele>
        <time>2013-07-28T11:52:54Z</time>
      </trkpt>
      <trkpt lat="48.15876" lon="-4.29329">
        <ele>29.4575195</ele>
        <time>2013-07-28T11:53:07Z</time>
      </trkpt>
      <trkpt lat="48.15869" lon="-4.29348">
        <ele>32.8222656</ele>
        <time>2013-07-28T11:53:21Z</time>
      </trkpt>
      <trkpt lat="48.15869" lon="-4.29349">
        <ele>32.8222656</ele>
        <time>2013-07-28T11:53:22Z</time>
      </trkpt>
      <trkpt lat="48.15867" lon="-4.29369">
        <ele>33.3028564</ele>
        <time>2013-07-28T11:53:36Z</time>
      </trkpt>
      <trkpt lat="48.15865" lon="-4.29373">
        <ele>32.8222656</ele>
        <time>2013-07-28T11:53:46Z</time>
      </trkpt>
      <trkpt lat="48.15865" lon="-4.2937">
        <ele>30.8995361</ele>
        <time>2013-07-28T11:54:12Z</time>
      </trkpt>
      <trkpt lat="48.15867" lon="-4.29368">
        <ele>30.4188232</ele>
        <time>2013-07-28T11:54:30Z</time>
      </trkpt>
      <trkpt lat="48.15863" lon="-4.2938">
        <ele>30.4188232</ele>
        <time>2013-07-28T11:54:54Z</time>
      </trkpt>
      <trkpt lat="48.15862" lon="-4.29397">
        <ele>29.9381104</ele>
        <time>2013-07-28T11:55:04Z</time>
      </trkpt>
      <trkpt lat="48.15861" lon="-4.29401">
        <ele>29.9381104</ele>
        <time>2013-07-28T11:55:06Z</time>
      </trkpt>
      <trkpt lat="48.15866" lon="-4.29421">
        <ele>30.4188232</ele>
        <time>2013-07-28T11:55:20Z</time>
      </trkpt>
      <trkpt lat="48.1587" lon="-4.29428">
        <ele>28.9769287</ele>
        <time>2013-07-28T11:55:33Z</time>
      </trkpt>
      <trkpt lat="48.15877" lon="-4.29444">
        <ele>29.9381104</ele>
        <time>2013-07-28T11:55:49Z</time>
      </trkpt>
      <trkpt lat="48.15879" lon="-4.29445">
        <ele>30.4188232</ele>
        <time>2013-07-28T11:55:51Z</time>
      </trkpt>
      <trkpt lat="48.15892" lon="-4.29456">
        <ele>32.3415527</ele>
        <time>2013-07-28T11:56:11Z</time>
      </trkpt>
      <trkpt lat="48.15904" lon="-4.29465">
        <ele>35.2254639</ele>
        <time>2013-07-28T11:56:24Z</time>
      </trkpt>
      <trkpt lat="48.15906" lon="-4.29469">
        <ele>36.1867676</ele>
        <time>2013-07-28T11:56:41Z</time>
      </trkpt>
      <trkpt lat="48.15911" lon="-4.29474">
        <ele>37.1480713</ele>
        <time>2013-07-28T11:56:47Z</time>
      </trkpt>
      <trkpt lat="48.15916" lon="-4.29475">
        <ele>37.1480713</ele>
        <time>2013-07-28T11:56:53Z</time>
      </trkpt>
      <trkpt lat="48.15922" lon="-4.29477">
        <ele>37.6286621</ele>
        <time>2013-07-28T11:56:57Z</time>
      </trkpt>
      <trkpt lat="48.15934" lon="-4.29473">
        <ele>39.5512695</ele>
        <time>2013-07-28T11:57:13Z</time>
      </trkpt>
      <trkpt lat="48.15937" lon="-4.29473">
        <ele>39.5512695</ele>
        <time>2013-07-28T11:57:16Z</time>
      </trkpt>
      <trkpt lat="48.15941" lon="-4.29474">
        <ele>40.5128174</ele>
        <time>2013-07-28T11:57:28Z</time>
      </trkpt>
      <trkpt lat="48.15948" lon="-4.29481">
        <ele>41.473999</ele>
        <time>2013-07-28T11:57:37Z</time>
      </trkpt>
      <trkpt lat="48.1596" lon="-4.29492">
        <ele>41.9547119</ele>
        <time>2013-07-28T11:57:51Z</time>
      </trkpt>
      <trkpt lat="48.15969" lon="-4.29498">
        <ele>43.8773193</ele>
        <time>2013-07-28T11:58:02Z</time>
      </trkpt>
      <trkpt lat="48.15973" lon="-4.29503">
        <ele>42.9160156</ele>
        <time>2013-07-28T11:58:08Z</time>
      </trkpt>
      <trkpt lat="48.15978" lon="-4.29508">
        <ele>41.9547119</ele>
        <time>2013-07-28T11:58:13Z</time>
      </trkpt>
      <trkpt lat="48.15989" lon="-4.29524">
        <ele>40.9934082</ele>
        <time>2013-07-28T11:58:29Z</time>
      </trkpt>
      <trkpt lat="48.15998" lon="-4.29536">
        <ele>39.5512695</ele>
        <time>2013-07-28T11:58:44Z</time>
      </trkpt>
      <trkpt lat="48.16005" lon="-4.29537">
        <ele>38.5900879</ele>
        <time>2013-07-28T11:58:59Z</time>
      </trkpt>
      <trkpt lat="48.16005" lon="-4.29537">
        <ele>38.109375</ele>
        <time>2013-07-28T11:59:42Z</time>
      </trkpt>
      <trkpt lat="48.16005" lon="-4.29539">
        <ele>36.1867676</ele>
        <time>2013-07-28T11:59:53Z</time>
      </trkpt>
      <trkpt lat="48.16005" lon="-4.29539">
        <ele>35.2254639</ele>
        <time>2013-07-28T12:00:18Z</time>
      </trkpt>
      <trkpt lat="48.16009" lon="-4.29538">
        <ele>34.744873</ele>
        <time>2013-07-28T12:00:27Z</time>
      </trkpt>
      <trkpt lat="48.16016" lon="-4.2954">
        <ele>31.8607178</ele>
        <time>2013-07-28T12:00:35Z</time>
      </trkpt>
      <trkpt lat="48.16016" lon="-4.2954">
        <ele>32.3415527</ele>
        <time>2013-07-28T12:00:46Z</time>
      </trkpt>
      <trkpt lat="48.16025" lon="-4.29525">
        <ele>32.3415527</ele>
        <time>2013-07-28T12:00:57Z</time>
      </trkpt>
      <trkpt lat="48.16025" lon="-4.29522">
        <ele>32.3415527</ele>
        <time>2013-07-28T12:01:14Z</time>
      </trkpt>
      <trkpt lat="48.16025" lon="-4.2952">
        <ele>31.8607178</ele>
        <time>2013-07-28T12:01:18Z</time>
      </trkpt>
      <trkpt lat="48.16027" lon="-4.29513">
        <ele>31.8607178</ele>
        <time>2013-07-28T12:01:22Z</time>
      </trkpt>
      <trkpt lat="48.16029" lon="-4.29507">
        <ele>30.8995361</ele>
        <time>2013-07-28T12:01:27Z</time>
      </trkpt>
      <trkpt lat="48.1604" lon="-4.29486">
        <ele>30.8995361</ele>
        <time>2013-07-28T12:01:44Z</time>
      </trkpt>
      <trkpt lat="48.16041" lon="-4.29485">
        <ele>30.8995361</ele>
        <time>2013-07-28T12:01:45Z</time>
      </trkpt>
      <trkpt lat="48.16041" lon="-4.2948">
        <ele>31.380127</ele>
        <time>2013-07-28T12:01:54Z</time>
      </trkpt>
      <trkpt lat="48.16041" lon="-4.2948">
        <ele>31.380127</ele>
        <time>2013-07-28T12:02:23Z</time>
      </trkpt>
      <trkpt lat="48.16046" lon="-4.2947">
        <ele>32.3415527</ele>
        <time>2013-07-28T12:02:36Z</time>
      </trkpt>
      <trkpt lat="48.16049" lon="-4.29471">
        <ele>31.8607178</ele>
        <time>2013-07-28T12:02:39Z</time>
      </trkpt>
      <trkpt lat="48.16058" lon="-4.29469">
        <ele>29.9381104</ele>
        <time>2013-07-28T12:02:53Z</time>
      </trkpt>
      <trkpt lat="48.16059" lon="-4.29472">
        <ele>28.9769287</ele>
        <time>2013-07-28T12:03:19Z</time>
      </trkpt>
      <trkpt lat="48.16057" lon="-4.29469">
        <ele>28.9769287</ele>
        <time>2013-07-28T12:03:41Z</time>
      </trkpt>
      <trkpt lat="48.16056" lon="-4.2947">
        <ele>28.0155029</ele>
        <time>2013-07-28T12:04:00Z</time>
      </trkpt>
      <trkpt lat="48.16057" lon="-4.29469">
        <ele>28.0155029</ele>
        <time>2013-07-28T12:04:25Z</time>
      </trkpt>
      <trkpt lat="48.16059" lon="-4.29469">
        <ele>27.0543213</ele>
        <time>2013-07-28T12:04:57Z</time>
      </trkpt>
      <trkpt lat="48.1606" lon="-4.29467">
        <ele>26.5736084</ele>
        <time>2013-07-28T12:05:02Z</time>
      </trkpt>
      <trkpt lat="48.16069" lon="-4.29464">
        <ele>26.5736084</ele>
        <time>2013-07-28T12:05:15Z</time>
      </trkpt>
      <trkpt lat="48.16073" lon="-4.29462">
        <ele>26.0928955</ele>
        <time>2013-07-28T12:05:23Z</time>
      </trkpt>
      <trkpt lat="48.16083" lon="-4.29466">
        <ele>24.1702881</ele>
        <time>2013-07-28T12:05:34Z</time>
      </trkpt>
      <trkpt lat="48.16083" lon="-4.29469">
        <ele>24.1702881</ele>
        <time>2013-07-28T12:05:45Z</time>
      </trkpt>
      <trkpt lat="48.16085" lon="-4.29474">
        <ele>23.6895752</ele>
        <time>2013-07-28T12:06:00Z</time>
      </trkpt>
      <trkpt lat="48.161" lon="-4.29488">
        <ele>23.2089844</ele>
        <time>2013-07-28T12:06:18Z</time>
      </trkpt>
      <trkpt lat="48.16099" lon="-4.29503">
        <ele>22.2475586</ele>
        <time>2013-07-28T12:06:41Z</time>
      </trkpt>
      <trkpt lat="48.16103" lon="-4.2951">
        <ele>21.7669678</ele>
        <time>2013-07-28T12:06:47Z</time>
      </trkpt>
      <trkpt lat="48.16103" lon="-4.29517">
        <ele>20.8056641</ele>
        <time>2013-07-28T12:06:52Z</time>
      </trkpt>
      <trkpt lat="48.16118" lon="-4.29524">
        <ele>18.8830566</ele>
        <time>2013-07-28T12:07:08Z</time>
      </trkpt>
      <trkpt lat="48.16125" lon="-4.29506">
        <ele>17.9217529</ele>
        <time>2013-07-28T12:07:25Z</time>
      </trkpt>
      <trkpt lat="48.1613" lon="-4.29485">
        <ele>17.9217529</ele>
        <time>2013-07-28T12:07:41Z</time>
      </trkpt>
      <trkpt lat="48.16139" lon="-4.29465">
        <ele>19.3637695</ele>
        <time>2013-07-28T12:07:57Z</time>
      </trkpt>
      <trkpt lat="48.16144" lon="-4.29456">
        <ele>19.8443604</ele>
        <time>2013-07-28T12:08:11Z</time>
      </trkpt>
      <trkpt lat="48.16143" lon="-4.29457">
        <ele>19.3637695</ele>
        <time>2013-07-28T12:08:21Z</time>
      </trkpt>
      <trkpt lat="48.16141" lon="-4.29453">
        <ele>19.3637695</ele>
        <time>2013-07-28T12:08:31Z</time>
      </trkpt>
      <trkpt lat="48.16143" lon="-4.29454">
        <ele>19.8443604</ele>
        <time>2013-07-28T12:08:46Z</time>
      </trkpt>
      <trkpt lat="48.16143" lon="-4.29452">
        <ele>20.8056641</ele>
        <time>2013-07-28T12:09:12Z</time>
      </trkpt>
      <trkpt lat="48.16144" lon="-4.29453">
        <ele>20.3249512</ele>
        <time>2013-07-28T12:09:23Z</time>
      </trkpt>
      <trkpt lat="48.16147" lon="-4.29449">
        <ele>20.3249512</ele>
        <time>2013-07-28T12:09:37Z</time>
      </trkpt>
      <trkpt lat="48.16146" lon="-4.29449">
        <ele>20.3249512</ele>
        <time>2013-07-28T12:09:54Z</time>
      </trkpt>
      <trkpt lat="48.16147" lon="-4.29449">
        <ele>20.3249512</ele>
        <time>2013-07-28T12:10:46Z</time>
      </trkpt>
      <trkpt lat="48.16152" lon="-4.29444">
        <ele>21.7669678</ele>
        <time>2013-07-28T12:11:27Z</time>
      </trkpt>
      <trkpt lat="48.16153" lon="-4.29443">
        <ele>22.2475586</ele>
        <time>2013-07-28T12:11:39Z</time>
      </trkpt>
      <trkpt lat="48.16154" lon="-4.2944">
        <ele>22.2475586</ele>
        <time>2013-07-28T12:11:45Z</time>
      </trkpt>
      <trkpt lat="48.1616" lon="-4.29429">
        <ele>23.2089844</ele>
        <time>2013-07-28T12:11:59Z</time>
      </trkpt>
      <trkpt lat="48.16161" lon="-4.29426">
        <ele>23.2089844</ele>
        <time>2013-07-28T12:12:03Z</time>
      </trkpt>
      <trkpt lat="48.16165" lon="-4.29422">
        <ele>22.7282715</ele>
        <time>2013-07-28T12:12:15Z</time>
      </trkpt>
      <trkpt lat="48.16168" lon="-4.29416">
        <ele>23.2089844</ele>
        <time>2013-07-28T12:12:38Z</time>
      </trkpt>
      <trkpt lat="48.16168" lon="-4.29415">
        <ele>23.6895752</ele>
        <time>2013-07-28T12:12:46Z</time>
      </trkpt>
      <trkpt lat="48.16177" lon="-4.29395">
        <ele>25.1317139</ele>
        <time>2013-07-28T12:13:00Z</time>
      </trkpt>
      <trkpt lat="48.16182" lon="-4.29383">
        <ele>25.6123047</ele>
        <time>2013-07-28T12:13:08Z</time>
      </trkpt>
      <trkpt lat="48.16191" lon="-4.29373">
        <ele>23.2089844</ele>
        <time>2013-07-28T12:13:19Z</time>
      </trkpt>
      <trkpt lat="48.16197" lon="-4.29368">
        <ele>24.1702881</ele>
        <time>2013-07-28T12:13:25Z</time>
      </trkpt>
      <trkpt lat="48.16201" lon="-4.29369">
        <ele>24.1702881</ele>
        <time>2013-07-28T12:13:27Z</time>
      </trkpt>
      <trkpt lat="48.16206" lon="-4.29365">
        <ele>23.6895752</ele>
        <time>2013-07-28T12:13:33Z</time>
      </trkpt>
      <trkpt lat="48.16214" lon="-4.29352">
        <ele>21.7669678</ele>
        <time>2013-07-28T12:13:44Z</time>
      </trkpt>
      <trkpt lat="48.16229" lon="-4.29342">
        <ele>21.286377</ele>
        <time>2013-07-28T12:14:00Z</time>
      </trkpt>
      <trkpt lat="48.16233" lon="-4.29341">
        <ele>20.3249512</ele>
        <time>2013-07-28T12:14:04Z</time>
      </trkpt>
      <trkpt lat="48.16253" lon="-4.29336">
        <ele>19.8443604</ele>
        <time>2013-07-28T12:14:23Z</time>
      </trkpt>
      <trkpt lat="48.16257" lon="-4.29334">
        <ele>18.4023438</ele>
        <time>2013-07-28T12:14:28Z</time>
      </trkpt>
      <trkpt lat="48.16265" lon="-4.29336">
        <ele>17.4411621</ele>
        <time>2013-07-28T12:14:34Z</time>
      </trkpt>
      <trkpt lat="48.16277" lon="-4.29337">
        <ele>16.4797363</ele>
        <time>2013-07-28T12:14:47Z</time>
      </trkpt>
      <trkpt lat="48.16295" lon="-4.29341">
        <ele>14.076416</ele>
        <time>2013-07-28T12:15:02Z</time>
      </trkpt>
      <trkpt lat="48.16299" lon="-4.29342">
        <ele>14.076416</ele>
        <time>2013-07-28T12:15:06Z</time>
      </trkpt>
      <trkpt lat="48.16308" lon="-4.29345">
        <ele>11.6732178</ele>
        <time>2013-07-28T12:15:19Z</time>
      </trkpt>
      <trkpt lat="48.16332" lon="-4.29354">
        <ele>7.8278809</ele>
        <time>2013-07-28T12:15:42Z</time>
      </trkpt>
      <trkpt lat="48.16349" lon="-4.29357">
        <ele>5.9052734</ele>
        <time>2013-07-28T12:15:58Z</time>
      </trkpt>
      <trkpt lat="48.1635" lon="-4.29356">
        <ele>6.3858643</ele>
        <time>2013-07-28T12:16:00Z</time>
      </trkpt>
      <trkpt lat="48.16368" lon="-4.29358">
        <ele>8.7891846</ele>
        <time>2013-07-28T12:16:16Z</time>
      </trkpt>
      <trkpt lat="48.16383" lon="-4.29359">
        <ele>9.2698975</ele>
        <time>2013-07-28T12:16:30Z</time>
      </trkpt>
      <trkpt lat="48.16397" lon="-4.29358">
        <ele>11.6732178</ele>
        <time>2013-07-28T12:16:46Z</time>
      </trkpt>
      <trkpt lat="48.16409" lon="-4.29356">
        <ele>10.711792</ele>
        <time>2013-07-28T12:16:57Z</time>
      </trkpt>
      <trkpt lat="48.1642" lon="-4.29354">
        <ele>10.2312012</ele>
        <time>2013-07-28T12:17:14Z</time>
      </trkpt>
      <trkpt lat="48.16424" lon="-4.29351">
        <ele>10.2312012</ele>
        <time>2013-07-28T12:17:30Z</time>
      </trkpt>
      <trkpt lat="48.16426" lon="-4.29349">
        <ele>9.7506104</ele>
        <time>2013-07-28T12:17:32Z</time>
      </trkpt>
      <trkpt lat="48.16447" lon="-4.29352">
        <ele>7.347168</ele>
        <time>2013-07-28T12:17:51Z</time>
      </trkpt>
      <trkpt lat="48.16453" lon="-4.29358">
        <ele>7.8278809</ele>
        <time>2013-07-28T12:18:09Z</time>
      </trkpt>
      <trkpt lat="48.16467" lon="-4.2937">
        <ele>3.0212402</ele>
        <time>2013-07-28T12:18:25Z</time>
      </trkpt>
      <trkpt lat="48.16468" lon="-4.2937">
        <ele>3.982666</ele>
        <time>2013-07-28T12:18:41Z</time>
      </trkpt>
      <trkpt lat="48.16473" lon="-4.29384">
        <ele>3.0212402</ele>
        <time>2013-07-28T12:18:51Z</time>
      </trkpt>
      <trkpt lat="48.16479" lon="-4.294">
        <ele>2.5406494</ele>
        <time>2013-07-28T12:19:03Z</time>
      </trkpt>
      <trkpt lat="48.16481" lon="-4.29411">
        <ele>1.5793457</ele>
        <time>2013-07-28T12:19:11Z</time>
      </trkpt>
      <trkpt lat="48.16484" lon="-4.29439">
        <ele>-1.7852783</ele>
        <time>2013-07-28T12:19:30Z</time>
      </trkpt>
      <trkpt lat="48.16493" lon="-4.2946">
        <ele>-6.5919189</ele>
        <time>2013-07-28T12:19:49Z</time>
      </trkpt>
      <trkpt lat="48.16495" lon="-4.29462">
        <ele>-6.5919189</ele>
        <time>2013-07-28T12:19:59Z</time>
      </trkpt>
      <trkpt lat="48.16493" lon="-4.29468">
        <ele>-6.1112061</ele>
        <time>2013-07-28T12:20:14Z</time>
      </trkpt>
      <trkpt lat="48.16493" lon="-4.29469">
        <ele>-6.5919189</ele>
        <time>2013-07-28T12:20:58Z</time>
      </trkpt>
      <trkpt lat="48.16492" lon="-4.29469">
        <ele>-6.1112061</ele>
        <time>2013-07-28T12:21:33Z</time>
      </trkpt>
      <trkpt lat="48.16496" lon="-4.29466">
        <ele>-5.1499023</ele>
        <time>2013-07-28T12:21:50Z</time>
      </trkpt>
      <trkpt lat="48.165" lon="-4.2946">
        <ele>-3.7078857</ele>
        <time>2013-07-28T12:22:05Z</time>
      </trkpt>
      <trkpt lat="48.16502" lon="-4.2946">
        <ele>-4.1885986</ele>
        <time>2013-07-28T12:22:30Z</time>
      </trkpt>
      <trkpt lat="48.16502" lon="-4.29463">
        <ele>-2.2659912</ele>
        <time>2013-07-28T12:22:49Z</time>
      </trkpt>
      <trkpt lat="48.16502" lon="-4.29463">
        <ele>-1.3046875</ele>
        <time>2013-07-28T12:23:08Z</time>
      </trkpt>
      <trkpt lat="48.16495" lon="-4.29466">
        <ele>-1.7852783</ele>
        <time>2013-07-28T12:23:31Z</time>
      </trkpt>
      <trkpt lat="48.16491" lon="-4.29472">
        <ele>-2.7467041</ele>
        <time>2013-07-28T12:24:02Z</time>
      </trkpt>
      <trkpt lat="48.165" lon="-4.29464">
        <ele>-1.7852783</ele>
        <time>2013-07-28T12:24:55Z</time>
      </trkpt>
      <trkpt lat="48.16499" lon="-4.29465">
        <ele>1.0986328</ele>
        <time>2013-07-28T12:25:27Z</time>
      </trkpt>
      <trkpt lat="48.16494" lon="-4.29456">
        <ele>3.0212402</ele>
        <time>2013-07-28T12:25:48Z</time>
      </trkpt>
      <trkpt lat="48.16504" lon="-4.29478">
        <ele>0.618042</ele>
        <time>2013-07-28T12:28:07Z</time>
      </trkpt>
      <trkpt lat="48.16528" lon="-4.29503">
        <ele>-2.7467041</ele>
        <time>2013-07-28T12:28:31Z</time>
      </trkpt>
      <trkpt lat="48.16531" lon="-4.29504">
        <ele>-2.7467041</ele>
        <time>2013-07-28T12:28:50Z</time>
      </trkpt>
      <trkpt lat="48.16533" lon="-4.29507">
        <ele>-2.7467041</ele>
        <time>2013-07-28T12:28:53Z</time>
      </trkpt>
      <trkpt lat="48.16546" lon="-4.29521">
        <ele>-3.2272949</ele>
        <time>2013-07-28T12:29:14Z</time>
      </trkpt>
      <trkpt lat="48.16555" lon="-4.29542">
        <ele>-1.7852783</ele>
        <time>2013-07-28T12:29:32Z</time>
      </trkpt>
      <trkpt lat="48.16554" lon="-4.29547">
        <ele>-1.7852783</ele>
        <time>2013-07-28T12:29:35Z</time>
      </trkpt>
      <trkpt lat="48.16553" lon="-4.29569">
        <ele>-2.7467041</ele>
        <time>2013-07-28T12:29:51Z</time>
      </trkpt>
      <trkpt lat="48.16553" lon="-4.29569">
        <ele>-2.2659912</ele>
        <time>2013-07-28T12:29:57Z</time>
      </trkpt>
      <trkpt lat="48.16557" lon="-4.29582">
        <ele>-2.2659912</ele>
        <time>2013-07-28T12:30:06Z</time>
      </trkpt>
      <trkpt lat="48.16549" lon="-4.2961">
        <ele>-1.7852783</ele>
        <time>2013-07-28T12:30:26Z</time>
      </trkpt>
      <trkpt lat="48.16545" lon="-4.29627">
        <ele>-0.3433838</ele>
        <time>2013-07-28T12:30:40Z</time>
      </trkpt>
      <trkpt lat="48.16543" lon="-4.29638">
        <ele>1.0986328</ele>
        <time>2013-07-28T12:30:59Z</time>
      </trkpt>
      <trkpt lat="48.16543" lon="-4.2965">
        <ele>1.5793457</ele>
        <time>2013-07-28T12:31:08Z</time>
      </trkpt>
      <trkpt lat="48.16542" lon="-4.29658">
        <ele>1.5793457</ele>
        <time>2013-07-28T12:31:13Z</time>
      </trkpt>
      <trkpt lat="48.16548" lon="-4.29682">
        <ele>1.5793457</ele>
        <time>2013-07-28T12:31:29Z</time>
      </trkpt>
      <trkpt lat="48.16547" lon="-4.29708">
        <ele>1.5793457</ele>
        <time>2013-07-28T12:31:48Z</time>
      </trkpt>
      <trkpt lat="48.16547" lon="-4.29709">
        <ele>1.5793457</ele>
        <time>2013-07-28T12:31:49Z</time>
      </trkpt>
      <trkpt lat="48.16545" lon="-4.29729">
        <ele>2.0600586</ele>
        <time>2013-07-28T12:32:03Z</time>
      </trkpt>
      <trkpt lat="48.16546" lon="-4.29743">
        <ele>1.0986328</ele>
        <time>2013-07-28T12:32:12Z</time>
      </trkpt>
      <trkpt lat="48.16544" lon="-4.2975">
        <ele>1.5793457</ele>
        <time>2013-07-28T12:32:21Z</time>
      </trkpt>
      <trkpt lat="48.16542" lon="-4.29745">
        <ele>2.0600586</ele>
        <time>2013-07-28T12:35:10Z</time>
      </trkpt>
      <trkpt lat="48.16542" lon="-4.29746">
        <ele>2.0600586</ele>
        <time>2013-07-28T12:35:38Z</time>
      </trkpt>
      <trkpt lat="48.16544" lon="-4.29743">
        <ele>2.5406494</ele>
        <time>2013-07-28T12:36:36Z</time>
      </trkpt>
      <trkpt lat="48.1656" lon="-4.29732">
        <ele>2.5406494</ele>
        <time>2013-07-28T12:36:53Z</time>
      </trkpt>
      <trkpt lat="48.16564" lon="-4.29727">
        <ele>3.5019531</ele>
        <time>2013-07-28T12:36:58Z</time>
      </trkpt>
      <trkpt lat="48.16567" lon="-4.29726">
        <ele>3.982666</ele>
        <time>2013-07-28T12:37:01Z</time>
      </trkpt>
      <trkpt lat="48.16579" lon="-4.29726">
        <ele>4.4632568</ele>
        <time>2013-07-28T12:37:13Z</time>
      </trkpt>
      <trkpt lat="48.16594" lon="-4.29727">
        <ele>6.3858643</ele>
        <time>2013-07-28T12:37:28Z</time>
      </trkpt>
      <trkpt lat="48.16596" lon="-4.29727">
        <ele>6.3858643</ele>
        <time>2013-07-28T12:37:30Z</time>
      </trkpt>
      <trkpt lat="48.16613" lon="-4.2972">
        <ele>8.3085938</ele>
        <time>2013-07-28T12:37:50Z</time>
      </trkpt>
      <trkpt lat="48.16627" lon="-4.29729">
        <ele>11.6732178</ele>
        <time>2013-07-28T12:38:05Z</time>
      </trkpt>
      <trkpt lat="48.16628" lon="-4.29729">
        <ele>12.1538086</ele>
        <time>2013-07-28T12:38:06Z</time>
      </trkpt>
      <trkpt lat="48.16632" lon="-4.29731">
        <ele>13.1151123</ele>
        <time>2013-07-28T12:38:10Z</time>
      </trkpt>
      <trkpt lat="48.16635" lon="-4.29733">
        <ele>14.5570068</ele>
        <time>2013-07-28T12:38:14Z</time>
      </trkpt>
      <trkpt lat="48.16644" lon="-4.29735">
        <ele>17.4411621</ele>
        <time>2013-07-28T12:38:23Z</time>
      </trkpt>
      <trkpt lat="48.1665" lon="-4.29734">
        <ele>15.9990234</ele>
        <time>2013-07-28T12:38:38Z</time>
      </trkpt>
      <trkpt lat="48.16651" lon="-4.29733">
        <ele>15.9990234</ele>
        <time>2013-07-28T12:38:40Z</time>
      </trkpt>
      <trkpt lat="48.16657" lon="-4.29728">
        <ele>14.5570068</ele>
        <time>2013-07-28T12:38:52Z</time>
      </trkpt>
      <trkpt lat="48.16659" lon="-4.29722">
        <ele>14.5570068</ele>
        <time>2013-07-28T12:38:57Z</time>
      </trkpt>
      <trkpt lat="48.16666" lon="-4.29715">
        <ele>15.0377197</ele>
        <time>2013-07-28T12:39:05Z</time>
      </trkpt>
      <trkpt lat="48.16677" lon="-4.29711">
        <ele>18.8830566</ele>
        <time>2013-07-28T12:39:20Z</time>
      </trkpt>
      <trkpt lat="48.16683" lon="-4.29716">
        <ele>20.3249512</ele>
        <time>2013-07-28T12:39:25Z</time>
      </trkpt>
      <trkpt lat="48.16691" lon="-4.2973">
        <ele>18.8830566</ele>
        <time>2013-07-28T12:39:39Z</time>
      </trkpt>
      <trkpt lat="48.16701" lon="-4.29738">
        <ele>16.9604492</ele>
        <time>2013-07-28T12:39:53Z</time>
      </trkpt>
      <trkpt lat="48.16709" lon="-4.29721">
        <ele>19.8443604</ele>
        <time>2013-07-28T12:40:11Z</time>
      </trkpt>
      <trkpt lat="48.16711" lon="-4.29709">
        <ele>21.7669678</ele>
        <time>2013-07-28T12:40:24Z</time>
      </trkpt>
      <trkpt lat="48.16719" lon="-4.29713">
        <ele>22.7282715</ele>
        <time>2013-07-28T12:40:37Z</time>
      </trkpt>
      <trkpt lat="48.16718" lon="-4.29713">
        <ele>22.2475586</ele>
        <time>2013-07-28T12:40:51Z</time>
      </trkpt>
      <trkpt lat="48.16714" lon="-4.29718">
        <ele>22.2475586</ele>
        <time>2013-07-28T12:41:04Z</time>
      </trkpt>
      <trkpt lat="48.16715" lon="-4.2972">
        <ele>22.2475586</ele>
        <time>2013-07-28T12:41:24Z</time>
      </trkpt>
      <trkpt lat="48.16715" lon="-4.2972">
        <ele>22.2475586</ele>
        <time>2013-07-28T12:42:32Z</time>
      </trkpt>
      <trkpt lat="48.16715" lon="-4.2972">
        <ele>22.2475586</ele>
        <time>2013-07-28T12:46:11Z</time>
      </trkpt>
      <trkpt lat="48.16719" lon="-4.29727">
        <ele>23.2089844</ele>
        <time>2013-07-28T12:46:24Z</time>
      </trkpt>
      <trkpt lat="48.16721" lon="-4.29734">
        <ele>23.2089844</ele>
        <time>2013-07-28T12:46:31Z</time>
      </trkpt>
      <trkpt lat="48.16727" lon="-4.29757">
        <ele>22.2475586</ele>
        <time>2013-07-28T12:46:50Z</time>
      </trkpt>
      <trkpt lat="48.16731" lon="-4.29765">
        <ele>21.286377</ele>
        <time>2013-07-28T12:47:14Z</time>
      </trkpt>
      <trkpt lat="48.16738" lon="-4.29773">
        <ele>21.286377</ele>
        <time>2013-07-28T12:47:24Z</time>
      </trkpt>
      <trkpt lat="48.16746" lon="-4.29779">
        <ele>20.8056641</ele>
        <time>2013-07-28T12:47:34Z</time>
      </trkpt>
      <trkpt lat="48.16757" lon="-4.29784">
        <ele>20.8056641</ele>
        <time>2013-07-28T12:47:50Z</time>
      </trkpt>
      <trkpt lat="48.1676" lon="-4.29786">
        <ele>20.8056641</ele>
        <time>2013-07-28T12:47:54Z</time>
      </trkpt>
      <trkpt lat="48.16774" lon="-4.29799">
        <ele>21.7669678</ele>
        <time>2013-07-28T12:48:15Z</time>
      </trkpt>
      <trkpt lat="48.16782" lon="-4.29808">
        <ele>24.651001</ele>
        <time>2013-07-28T12:48:28Z</time>
      </trkpt>
      <trkpt lat="48.16789" lon="-4.29823">
        <ele>24.651001</ele>
        <time>2013-07-28T12:48:42Z</time>
      </trkpt>
      <trkpt lat="48.16789" lon="-4.29819">
        <ele>23.6895752</ele>
        <time>2013-07-28T12:48:58Z</time>
      </trkpt>
      <trkpt lat="48.16787" lon="-4.29821">
        <ele>23.6895752</ele>
        <time>2013-07-28T12:49:18Z</time>
      </trkpt>
      <trkpt lat="48.16785" lon="-4.2982">
        <ele>23.2089844</ele>
        <time>2013-07-28T12:50:40Z</time>
      </trkpt>
      <trkpt lat="48.16787" lon="-4.29814">
        <ele>24.1702881</ele>
        <time>2013-07-28T12:51:17Z</time>
      </trkpt>
      <trkpt lat="48.16781" lon="-4.29809">
        <ele>24.651001</ele>
        <time>2013-07-28T12:51:33Z</time>
      </trkpt>
      <trkpt lat="48.16782" lon="-4.29806">
        <ele>24.651001</ele>
        <time>2013-07-28T12:51:35Z</time>
      </trkpt>
      <trkpt lat="48.16781" lon="-4.298">
        <ele>24.651001</ele>
        <time>2013-07-28T12:51:39Z</time>
      </trkpt>
      <trkpt lat="48.16781" lon="-4.29782">
        <ele>24.651001</ele>
        <time>2013-07-28T12:51:59Z</time>
      </trkpt>
      <trkpt lat="48.16781" lon="-4.29815">
        <ele>26.0928955</ele>
        <time>2013-07-28T12:52:23Z</time>
      </trkpt>
      <trkpt lat="48.16786" lon="-4.29836">
        <ele>26.0928955</ele>
        <time>2013-07-28T12:52:44Z</time>
      </trkpt>
      <trkpt lat="48.16787" lon="-4.29821">
        <ele>24.1702881</ele>
        <time>2013-07-28T12:52:59Z</time>
      </trkpt>
      <trkpt lat="48.16794" lon="-4.29813">
        <ele>21.286377</ele>
        <time>2013-07-28T12:53:16Z</time>
      </trkpt>
      <trkpt lat="48.16796" lon="-4.29815">
        <ele>21.286377</ele>
        <time>2013-07-28T12:53:31Z</time>
      </trkpt>
      <trkpt lat="48.16802" lon="-4.29822">
        <ele>17.9217529</ele>
        <time>2013-07-28T12:53:43Z</time>
      </trkpt>
      <trkpt lat="48.168" lon="-4.29829">
        <ele>17.4411621</ele>
        <time>2013-07-28T12:53:49Z</time>
      </trkpt>
      <trkpt lat="48.16796" lon="-4.29839">
        <ele>17.4411621</ele>
        <time>2013-07-28T12:54:04Z</time>
      </trkpt>
      <trkpt lat="48.16793" lon="-4.29842">
        <ele>17.4411621</ele>
        <time>2013-07-28T12:54:21Z</time>
      </trkpt>
      <trkpt lat="48.1679" lon="-4.29845">
        <ele>17.4411621</ele>
        <time>2013-07-28T12:54:47Z</time>
      </trkpt>
      <trkpt lat="48.1679" lon="-4.29847">
        <ele>15.9990234</ele>
        <time>2013-07-28T12:55:19Z</time>
      </trkpt>
      <trkpt lat="48.16789" lon="-4.29852">
        <ele>18.4023438</ele>
        <time>2013-07-28T12:55:58Z</time>
      </trkpt>
      <trkpt lat="48.16784" lon="-4.29856">
        <ele>18.4023438</ele>
        <time>2013-07-28T12:56:15Z</time>
      </trkpt>
      <trkpt lat="48.16788" lon="-4.29859">
        <ele>18.4023438</ele>
        <time>2013-07-28T12:56:58Z</time>
      </trkpt>
      <trkpt lat="48.16792" lon="-4.29847">
        <ele>20.3249512</ele>
        <time>2013-07-28T12:57:18Z</time>
      </trkpt>
      <trkpt lat="48.16793" lon="-4.29835">
        <ele>20.8056641</ele>
        <time>2013-07-28T12:57:35Z</time>
      </trkpt>
      <trkpt lat="48.16796" lon="-4.29845">
        <ele>20.3249512</ele>
        <time>2013-07-28T12:58:29Z</time>
      </trkpt>
      <trkpt lat="48.16796" lon="-4.29842">
        <ele>20.3249512</ele>
        <time>2013-07-28T12:59:06Z</time>
      </trkpt>
      <trkpt lat="48.16808" lon="-4.29812">
        <ele>20.8056641</ele>
        <time>2013-07-28T12:59:26Z</time>
      </trkpt>
      <trkpt lat="48.16814" lon="-4.298">
        <ele>21.286377</ele>
        <time>2013-07-28T12:59:39Z</time>
      </trkpt>
      <trkpt lat="48.16816" lon="-4.29796">
        <ele>20.8056641</ele>
        <time>2013-07-28T12:59:43Z</time>
      </trkpt>
      <trkpt lat="48.16822" lon="-4.29781">
        <ele>20.3249512</ele>
        <time>2013-07-28T12:59:52Z</time>
      </trkpt>
      <trkpt lat="48.16828" lon="-4.29778">
        <ele>17.4411621</ele>
        <time>2013-07-28T12:59:59Z</time>
      </trkpt>
      <trkpt lat="48.16833" lon="-4.29769">
        <ele>15.9990234</ele>
        <time>2013-07-28T13:00:08Z</time>
      </trkpt>
      <trkpt lat="48.16845" lon="-4.29772">
        <ele>13.5958252</ele>
        <time>2013-07-28T13:00:26Z</time>
      </trkpt>
      <trkpt lat="48.16848" lon="-4.29774">
        <ele>11.1925049</ele>
        <time>2013-07-28T13:00:39Z</time>
      </trkpt>
      <trkpt lat="48.16849" lon="-4.29767">
        <ele>11.1925049</ele>
        <time>2013-07-28T13:01:08Z</time>
      </trkpt>
      <trkpt lat="48.16851" lon="-4.29762">
        <ele>11.1925049</ele>
        <time>2013-07-28T13:01:11Z</time>
      </trkpt>
      <trkpt lat="48.16863" lon="-4.29736">
        <ele>8.3085938</ele>
        <time>2013-07-28T13:01:31Z</time>
      </trkpt>
      <trkpt lat="48.16869" lon="-4.29729">
        <ele>6.8664551</ele>
        <time>2013-07-28T13:01:39Z</time>
      </trkpt>
      <trkpt lat="48.16873" lon="-4.29705">
        <ele>4.4632568</ele>
        <time>2013-07-28T13:01:57Z</time>
      </trkpt>
      <trkpt lat="48.16873" lon="-4.29704">
        <ele>4.4632568</ele>
        <time>2013-07-28T13:01:58Z</time>
      </trkpt>
      <trkpt lat="48.16872" lon="-4.297">
        <ele>3.982666</ele>
        <time>2013-07-28T13:02:02Z</time>
      </trkpt>
      <trkpt lat="48.16869" lon="-4.29672">
        <ele>2.0600586</ele>
        <time>2013-07-28T13:02:21Z</time>
      </trkpt>
      <trkpt lat="48.1686" lon="-4.2966">
        <ele>1.0986328</ele>
        <time>2013-07-28T13:02:38Z</time>
      </trkpt>
      <trkpt lat="48.16857" lon="-4.29652">
        <ele>1.0986328</ele>
        <time>2013-07-28T13:02:56Z</time>
      </trkpt>
      <trkpt lat="48.16855" lon="-4.29653">
        <ele>1.0986328</ele>
        <time>2013-07-28T13:03:03Z</time>
      </trkpt>
      <trkpt lat="48.1685" lon="-4.29634">
        <ele>-1.3046875</ele>
        <time>2013-07-28T13:03:17Z</time>
      </trkpt>
      <trkpt lat="48.16849" lon="-4.29617">
        <ele>-3.2272949</ele>
        <time>2013-07-28T13:03:30Z</time>
      </trkpt>
      <trkpt lat="48.16847" lon="-4.29607">
        <ele>-4.1885986</ele>
        <time>2013-07-28T13:03:37Z</time>
      </trkpt>
      <trkpt lat="48.16844" lon="-4.29587">
        <ele>-5.1499023</ele>
        <time>2013-07-28T13:03:53Z</time>
      </trkpt>
      <trkpt lat="48.16837" lon="-4.2956">
        <ele>-6.5919189</ele>
        <time>2013-07-28T13:04:11Z</time>
      </trkpt>
      <trkpt lat="48.16837" lon="-4.29546">
        <ele>-7.5531006</ele>
        <time>2013-07-28T13:04:22Z</time>
      </trkpt>
      <trkpt lat="48.1683" lon="-4.2952">
        <ele>-7.5531006</ele>
        <time>2013-07-28T13:04:39Z</time>
      </trkpt>
      <trkpt lat="48.16816" lon="-4.29504">
        <ele>-7.0725098</ele>
        <time>2013-07-28T13:04:58Z</time>
      </trkpt>
      <trkpt lat="48.16815" lon="-4.29503">
        <ele>-6.5919189</ele>
        <time>2013-07-28T13:04:59Z</time>
      </trkpt>
      <trkpt lat="48.16797" lon="-4.29492">
        <ele>1.5793457</ele>
        <time>2013-07-28T13:05:21Z</time>
      </trkpt>
      <trkpt lat="48.16795" lon="-4.2949">
        <ele>2.5406494</ele>
        <time>2013-07-28T13:05:43Z</time>
      </trkpt>
      <trkpt lat="48.16797" lon="-4.29489">
        <ele>5.4245605</ele>
        <time>2013-07-28T13:06:31Z</time>
      </trkpt>
      <trkpt lat="48.16793" lon="-4.29497">
        <ele>6.8664551</ele>
        <time>2013-07-28T13:06:40Z</time>
      </trkpt>
      <trkpt lat="48.16785" lon="-4.29498">
        <ele>8.3085938</ele>
        <time>2013-07-28T13:06:58Z</time>
      </trkpt>
      <trkpt lat="48.16785" lon="-4.29496">
        <ele>8.7891846</ele>
        <time>2013-07-28T13:07:27Z</time>
      </trkpt>
      <trkpt lat="48.16784" lon="-4.29498">
        <ele>8.7891846</ele>
        <time>2013-07-28T13:08:11Z</time>
      </trkpt>
      <trkpt lat="48.16785" lon="-4.29497">
        <ele>9.2698975</ele>
        <time>2013-07-28T13:08:50Z</time>
      </trkpt>
      <trkpt lat="48.16783" lon="-4.29492">
        <ele>9.2698975</ele>
        <time>2013-07-28T13:09:14Z</time>
      </trkpt>
      <trkpt lat="48.16779" lon="-4.29471">
        <ele>7.8278809</ele>
        <time>2013-07-28T13:09:32Z</time>
      </trkpt>
      <trkpt lat="48.16772" lon="-4.29464">
        <ele>8.7891846</ele>
        <time>2013-07-28T13:09:46Z</time>
      </trkpt>
      <trkpt lat="48.16769" lon="-4.2946">
        <ele>9.2698975</ele>
        <time>2013-07-28T13:09:50Z</time>
      </trkpt>
      <trkpt lat="48.16766" lon="-4.29456">
        <ele>9.7506104</ele>
        <time>2013-07-28T13:10:17Z</time>
      </trkpt>
      <trkpt lat="48.16767" lon="-4.29448">
        <ele>10.2312012</ele>
        <time>2013-07-28T13:11:14Z</time>
      </trkpt>
      <trkpt lat="48.16769" lon="-4.29456">
        <ele>10.711792</ele>
        <time>2013-07-28T13:13:50Z</time>
      </trkpt>
      <trkpt lat="48.16766" lon="-4.29451">
        <ele>11.1925049</ele>
        <time>2013-07-28T13:14:38Z</time>
      </trkpt>
      <trkpt lat="48.16761" lon="-4.29433">
        <ele>12.6343994</ele>
        <time>2013-07-28T13:23:15Z</time>
      </trkpt>
      <trkpt lat="48.1675" lon="-4.2941">
        <ele>15.0377197</ele>
        <time>2013-07-28T13:23:34Z</time>
      </trkpt>
      <trkpt lat="48.16742" lon="-4.29394">
        <ele>17.9217529</ele>
        <time>2013-07-28T13:23:58Z</time>
      </trkpt>
      <trkpt lat="48.16759" lon="-4.29391">
        <ele>17.9217529</ele>
        <time>2013-07-28T13:24:21Z</time>
      </trkpt>
      <trkpt lat="48.16766" lon="-4.29376">
        <ele>16.9604492</ele>
        <time>2013-07-28T13:24:44Z</time>
      </trkpt>
      <trkpt lat="48.16772" lon="-4.29364">
        <ele>16.4797363</ele>
        <time>2013-07-28T13:25:05Z</time>
      </trkpt>
      <trkpt lat="48.16784" lon="-4.29337">
        <ele>13.1151123</ele>
        <time>2013-07-28T13:25:28Z</time>
      </trkpt>
      <trkpt lat="48.16799" lon="-4.29314">
        <ele>10.711792</ele>
        <time>2013-07-28T13:25:49Z</time>
      </trkpt>
      <trkpt lat="48.16812" lon="-4.29285">
        <ele>9.7506104</ele>
        <time>2013-07-28T13:26:13Z</time>
      </trkpt>
      <trkpt lat="48.16814" lon="-4.29271">
        <ele>12.1538086</ele>
        <time>2013-07-28T13:26:30Z</time>
      </trkpt>
      <trkpt lat="48.16804" lon="-4.29254">
        <ele>12.6343994</ele>
        <time>2013-07-28T13:26:50Z</time>
      </trkpt>
      <trkpt lat="48.16782" lon="-4.2924">
        <ele>13.1151123</ele>
        <time>2013-07-28T13:27:15Z</time>
      </trkpt>
      <trkpt lat="48.16758" lon="-4.29225">
        <ele>14.5570068</ele>
        <time>2013-07-28T13:27:40Z</time>
      </trkpt>
      <trkpt lat="48.1674" lon="-4.2922">
        <ele>15.9990234</ele>
        <time>2013-07-28T13:27:56Z</time>
      </trkpt>
      <trkpt lat="48.1673" lon="-4.29217">
        <ele>16.9604492</ele>
        <time>2013-07-28T13:28:14Z</time>
      </trkpt>
      <trkpt lat="48.16729" lon="-4.29217">
        <ele>16.4797363</ele>
        <time>2013-07-28T13:28:16Z</time>
      </trkpt>
      <trkpt lat="48.16718" lon="-4.29244">
        <ele>17.9217529</ele>
        <time>2013-07-28T13:28:38Z</time>
      </trkpt>
      <trkpt lat="48.16709" lon="-4.29261">
        <ele>20.3249512</ele>
        <time>2013-07-28T13:28:55Z</time>
      </trkpt>
      <trkpt lat="48.16694" lon="-4.29286">
        <ele>21.286377</ele>
        <time>2013-07-28T13:29:15Z</time>
      </trkpt>
      <trkpt lat="48.16679" lon="-4.29298">
        <ele>22.7282715</ele>
        <time>2013-07-28T13:29:31Z</time>
      </trkpt>
      <trkpt lat="48.16673" lon="-4.29297">
        <ele>22.7282715</ele>
        <time>2013-07-28T13:29:36Z</time>
      </trkpt>
      <trkpt lat="48.16652" lon="-4.29296">
        <ele>26.5736084</ele>
        <time>2013-07-28T13:29:57Z</time>
      </trkpt>
      <trkpt lat="48.16646" lon="-4.29301">
        <ele>28.0155029</ele>
        <time>2013-07-28T13:30:06Z</time>
      </trkpt>
      <trkpt lat="48.16633" lon="-4.2933">
        <ele>29.9381104</ele>
        <time>2013-07-28T13:30:27Z</time>
      </trkpt>
      <trkpt lat="48.16625" lon="-4.29352">
        <ele>30.4188232</ele>
        <time>2013-07-28T13:30:42Z</time>
      </trkpt>
      <trkpt lat="48.16609" lon="-4.29364">
        <ele>31.8607178</ele>
        <time>2013-07-28T13:31:00Z</time>
      </trkpt>
      <trkpt lat="48.1659" lon="-4.29352">
        <ele>31.380127</ele>
        <time>2013-07-28T13:31:19Z</time>
      </trkpt>
      <trkpt lat="48.16589" lon="-4.29351">
        <ele>31.380127</ele>
        <time>2013-07-28T13:31:20Z</time>
      </trkpt>
      <trkpt lat="48.16579" lon="-4.29313">
        <ele>30.8995361</ele>
        <time>2013-07-28T13:31:43Z</time>
      </trkpt>
      <trkpt lat="48.16581" lon="-4.2927">
        <ele>30.8995361</ele>
        <time>2013-07-28T13:32:09Z</time>
      </trkpt>
      <trkpt lat="48.16583" lon="-4.2926">
        <ele>29.9381104</ele>
        <time>2013-07-28T13:32:24Z</time>
      </trkpt>
      <trkpt lat="48.16586" lon="-4.29231">
        <ele>29.4575195</ele>
        <time>2013-07-28T13:32:41Z</time>
      </trkpt>
      <trkpt lat="48.16592" lon="-4.29193">
        <ele>29.4575195</ele>
        <time>2013-07-28T13:33:04Z</time>
      </trkpt>
      <trkpt lat="48.16596" lon="-4.29164">
        <ele>29.4575195</ele>
        <time>2013-07-28T13:33:22Z</time>
      </trkpt>
      <trkpt lat="48.16599" lon="-4.2913">
        <ele>30.8995361</ele>
        <time>2013-07-28T13:33:42Z</time>
      </trkpt>
      <trkpt lat="48.16602" lon="-4.29088">
        <ele>32.3415527</ele>
        <time>2013-07-28T13:34:09Z</time>
      </trkpt>
      <trkpt lat="48.16602" lon="-4.29048">
        <ele>34.744873</ele>
        <time>2013-07-28T13:34:34Z</time>
      </trkpt>
      <trkpt lat="48.16604" lon="-4.29016">
        <ele>37.6286621</ele>
        <time>2013-07-28T13:34:56Z</time>
      </trkpt>
      <trkpt lat="48.16611" lon="-4.28981">
        <ele>40.5128174</ele>
        <time>2013-07-28T13:35:19Z</time>
      </trkpt>
      <trkpt lat="48.16615" lon="-4.28953">
        <ele>41.473999</ele>
        <time>2013-07-28T13:35:36Z</time>
      </trkpt>
      <trkpt lat="48.16617" lon="-4.28926">
        <ele>42.9160156</ele>
        <time>2013-07-28T13:35:54Z</time>
      </trkpt>
      <trkpt lat="48.16631" lon="-4.28895">
        <ele>41.473999</ele>
        <time>2013-07-28T13:36:16Z</time>
      </trkpt>
      <trkpt lat="48.16647" lon="-4.28877">
        <ele>40.0321045</ele>
        <time>2013-07-28T13:36:34Z</time>
      </trkpt>
      <trkpt lat="48.16668" lon="-4.28861">
        <ele>38.109375</ele>
        <time>2013-07-28T13:36:55Z</time>
      </trkpt>
      <trkpt lat="48.1669" lon="-4.28842">
        <ele>39.0706787</ele>
        <time>2013-07-28T13:37:18Z</time>
      </trkpt>
      <trkpt lat="48.16708" lon="-4.28814">
        <ele>42.4354248</ele>
        <time>2013-07-28T13:37:42Z</time>
      </trkpt>
      <trkpt lat="48.16716" lon="-4.28783">
        <ele>45.3192139</ele>
        <time>2013-07-28T13:38:03Z</time>
      </trkpt>
      <trkpt lat="48.16719" lon="-4.28753">
        <ele>48.2033691</ele>
        <time>2013-07-28T13:38:23Z</time>
      </trkpt>
      <trkpt lat="48.1672" lon="-4.28731">
        <ele>49.6452637</ele>
        <time>2013-07-28T13:38:38Z</time>
      </trkpt>
      <trkpt lat="48.16712" lon="-4.28718">
        <ele>48.2033691</ele>
        <time>2013-07-28T13:38:54Z</time>
      </trkpt>
      <trkpt lat="48.16692" lon="-4.28717">
        <ele>49.1645508</ele>
        <time>2013-07-28T13:39:15Z</time>
      </trkpt>
      <trkpt lat="48.16667" lon="-4.28723">
        <ele>50.1259766</ele>
        <time>2013-07-28T13:39:39Z</time>
      </trkpt>
      <trkpt lat="48.16644" lon="-4.28729">
        <ele>49.6452637</ele>
        <time>2013-07-28T13:40:02Z</time>
      </trkpt>
      <trkpt lat="48.16615" lon="-4.28737">
        <ele>48.68396</ele>
        <time>2013-07-28T13:40:29Z</time>
      </trkpt>
      <trkpt lat="48.16586" lon="-4.28746">
        <ele>48.68396</ele>
        <time>2013-07-28T13:40:56Z</time>
      </trkpt>
      <trkpt lat="48.16563" lon="-4.28752">
        <ele>48.68396</ele>
        <time>2013-07-28T13:41:17Z</time>
      </trkpt>
      <trkpt lat="48.16548" lon="-4.28757">
        <ele>50.1259766</ele>
        <time>2013-07-28T13:41:30Z</time>
      </trkpt>
      <trkpt lat="48.16536" lon="-4.28759">
        <ele>51.0871582</ele>
        <time>2013-07-28T13:41:40Z</time>
      </trkpt>
      <trkpt lat="48.16531" lon="-4.2876">
        <ele>50.6065674</ele>
        <time>2013-07-28T13:41:44Z</time>
      </trkpt>
      <trkpt lat="48.16503" lon="-4.28755">
        <ele>48.68396</ele>
        <time>2013-07-28T13:42:10Z</time>
      </trkpt>
      <trkpt lat="48.16501" lon="-4.28754">
        <ele>48.2033691</ele>
        <time>2013-07-28T13:42:12Z</time>
      </trkpt>
      <trkpt lat="48.1648" lon="-4.2874">
        <ele>49.1645508</ele>
        <time>2013-07-28T13:42:33Z</time>
      </trkpt>
      <trkpt lat="48.16458" lon="-4.28727">
        <ele>49.6452637</ele>
        <time>2013-07-28T13:42:55Z</time>
      </trkpt>
      <trkpt lat="48.16433" lon="-4.28711">
        <ele>49.1645508</ele>
        <time>2013-07-28T13:43:21Z</time>
      </trkpt>
      <trkpt lat="48.16409" lon="-4.28697">
        <ele>48.2033691</ele>
        <time>2013-07-28T13:43:44Z</time>
      </trkpt>
      <trkpt lat="48.16387" lon="-4.2868">
        <ele>46.2806396</ele>
        <time>2013-07-28T13:44:05Z</time>
      </trkpt>
      <trkpt lat="48.16373" lon="-4.28657">
        <ele>43.3966064</ele>
        <time>2013-07-28T13:44:28Z</time>
      </trkpt>
      <trkpt lat="48.16371" lon="-4.28633">
        <ele>42.9160156</ele>
        <time>2013-07-28T13:46:38Z</time>
      </trkpt>
      <trkpt lat="48.16364" lon="-4.28601">
        <ele>39.5512695</ele>
        <time>2013-07-28T13:46:59Z</time>
      </trkpt>
      <trkpt lat="48.16356" lon="-4.28562">
        <ele>37.6286621</ele>
        <time>2013-07-28T13:47:24Z</time>
      </trkpt>
      <trkpt lat="48.16349" lon="-4.28521">
        <ele>34.744873</ele>
        <time>2013-07-28T13:47:50Z</time>
      </trkpt>
      <trkpt lat="48.16349" lon="-4.28517">
        <ele>34.744873</ele>
        <time>2013-07-28T13:47:52Z</time>
      </trkpt>
      <trkpt lat="48.16357" lon="-4.2848">
        <ele>34.2641602</ele>
        <time>2013-07-28T13:48:17Z</time>
      </trkpt>
      <trkpt lat="48.16367" lon="-4.28454">
        <ele>33.7834473</ele>
        <time>2013-07-28T13:48:35Z</time>
      </trkpt>
      <trkpt lat="48.16375" lon="-4.28424">
        <ele>32.3415527</ele>
        <time>2013-07-28T13:48:56Z</time>
      </trkpt>
      <trkpt lat="48.16379" lon="-4.28391">
        <ele>30.4188232</ele>
        <time>2013-07-28T13:49:16Z</time>
      </trkpt>
      <trkpt lat="48.16378" lon="-4.28386">
        <ele>29.9381104</ele>
        <time>2013-07-28T13:49:20Z</time>
      </trkpt>
      <trkpt lat="48.16369" lon="-4.28351">
        <ele>28.9769287</ele>
        <time>2013-07-28T13:49:41Z</time>
      </trkpt>
      <trkpt lat="48.16359" lon="-4.28322">
        <ele>28.9769287</ele>
        <time>2013-07-28T13:50:03Z</time>
      </trkpt>
      <trkpt lat="48.16348" lon="-4.28289">
        <ele>26.5736084</ele>
        <time>2013-07-28T13:50:31Z</time>
      </trkpt>
      <trkpt lat="48.16348" lon="-4.28275">
        <ele>24.651001</ele>
        <time>2013-07-28T13:50:55Z</time>
      </trkpt>
      <trkpt lat="48.1634" lon="-4.28262">
        <ele>26.0928955</ele>
        <time>2013-07-28T13:52:47Z</time>
      </trkpt>
      <trkpt lat="48.16324" lon="-4.28243">
        <ele>26.0928955</ele>
        <time>2013-07-28T13:53:15Z</time>
      </trkpt>
      <trkpt lat="48.16313" lon="-4.28228">
        <ele>26.5736084</ele>
        <time>2013-07-28T13:53:31Z</time>
      </trkpt>
      <trkpt lat="48.16313" lon="-4.28226">
        <ele>26.5736084</ele>
        <time>2013-07-28T13:53:38Z</time>
      </trkpt>
      <trkpt lat="48.16299" lon="-4.28188">
        <ele>28.0155029</ele>
        <time>2013-07-28T13:54:02Z</time>
      </trkpt>
      <trkpt lat="48.16296" lon="-4.28174">
        <ele>30.4188232</ele>
        <time>2013-07-28T13:54:09Z</time>
      </trkpt>
      <trkpt lat="48.16283" lon="-4.28145">
        <ele>33.7834473</ele>
        <time>2013-07-28T13:54:28Z</time>
      </trkpt>
      <trkpt lat="48.16271" lon="-4.28113">
        <ele>36.6674805</ele>
        <time>2013-07-28T13:54:50Z</time>
      </trkpt>
      <trkpt lat="48.16266" lon="-4.28083">
        <ele>36.1867676</ele>
        <time>2013-07-28T13:55:09Z</time>
      </trkpt>
      <trkpt lat="48.16267" lon="-4.28057">
        <ele>35.7060547</ele>
        <time>2013-07-28T13:55:25Z</time>
      </trkpt>
      <trkpt lat="48.16275" lon="-4.28025">
        <ele>35.2254639</ele>
        <time>2013-07-28T13:55:46Z</time>
      </trkpt>
      <trkpt lat="48.16282" lon="-4.28005">
        <ele>35.7060547</ele>
        <time>2013-07-28T13:55:59Z</time>
      </trkpt>
      <trkpt lat="48.16292" lon="-4.27971">
        <ele>36.1867676</ele>
        <time>2013-07-28T13:56:22Z</time>
      </trkpt>
      <trkpt lat="48.163" lon="-4.27939">
        <ele>36.1867676</ele>
        <time>2013-07-28T13:56:42Z</time>
      </trkpt>
      <trkpt lat="48.16311" lon="-4.27912">
        <ele>36.6674805</ele>
        <time>2013-07-28T13:57:00Z</time>
      </trkpt>
      <trkpt lat="48.16323" lon="-4.27891">
        <ele>36.6674805</ele>
        <time>2013-07-28T13:57:16Z</time>
      </trkpt>
      <trkpt lat="48.16335" lon="-4.27873">
        <ele>37.1480713</ele>
        <time>2013-07-28T13:57:33Z</time>
      </trkpt>
      <trkpt lat="48.1635" lon="-4.27851">
        <ele>37.1480713</ele>
        <time>2013-07-28T13:57:51Z</time>
      </trkpt>
      <trkpt lat="48.16366" lon="-4.27827">
        <ele>39.5512695</ele>
        <time>2013-07-28T13:58:12Z</time>
      </trkpt>
      <trkpt lat="48.16381" lon="-4.27803">
        <ele>40.5128174</ele>
        <time>2013-07-28T13:58:33Z</time>
      </trkpt>
      <trkpt lat="48.16393" lon="-4.27781">
        <ele>41.473999</ele>
        <time>2013-07-28T13:58:51Z</time>
      </trkpt>
      <trkpt lat="48.16406" lon="-4.27755">
        <ele>41.473999</ele>
        <time>2013-07-28T13:59:10Z</time>
      </trkpt>
      <trkpt lat="48.16419" lon="-4.27729">
        <ele>41.9547119</ele>
        <time>2013-07-28T13:59:31Z</time>
      </trkpt>
      <trkpt lat="48.16433" lon="-4.27703">
        <ele>42.9160156</ele>
        <time>2013-07-28T13:59:53Z</time>
      </trkpt>
      <trkpt lat="48.16444" lon="-4.27677">
        <ele>44.3580322</ele>
        <time>2013-07-28T14:00:14Z</time>
      </trkpt>
      <trkpt lat="48.16457" lon="-4.27649">
        <ele>45.3192139</ele>
        <time>2013-07-28T14:00:36Z</time>
      </trkpt>
      <trkpt lat="48.16463" lon="-4.2763">
        <ele>47.2418213</ele>
        <time>2013-07-28T14:00:54Z</time>
      </trkpt>
      <trkpt lat="48.16472" lon="-4.27606">
        <ele>46.7612305</ele>
        <time>2013-07-28T14:01:12Z</time>
      </trkpt>
      <trkpt lat="48.16482" lon="-4.27574">
        <ele>46.7612305</ele>
        <time>2013-07-28T14:01:33Z</time>
      </trkpt>
      <trkpt lat="48.1649" lon="-4.27547">
        <ele>48.2033691</ele>
        <time>2013-07-28T14:01:51Z</time>
      </trkpt>
      <trkpt lat="48.16503" lon="-4.27507">
        <ele>51.5678711</ele>
        <time>2013-07-28T14:02:17Z</time>
      </trkpt>
      <trkpt lat="48.16505" lon="-4.27485">
        <ele>52.5291748</ele>
        <time>2013-07-28T14:02:30Z</time>
      </trkpt>
      <trkpt lat="48.16502" lon="-4.27481">
        <ele>53.0097656</ele>
        <time>2013-07-28T14:02:34Z</time>
      </trkpt>
      <trkpt lat="48.16486" lon="-4.27478">
        <ele>54.4517822</ele>
        <time>2013-07-28T14:02:50Z</time>
      </trkpt>
      <trkpt lat="48.16461" lon="-4.27468">
        <ele>56.8551025</ele>
        <time>2013-07-28T14:03:13Z</time>
      </trkpt>
      <trkpt lat="48.16448" lon="-4.27463">
        <ele>57.8165283</ele>
        <time>2013-07-28T14:03:26Z</time>
      </trkpt>
      <trkpt lat="48.16426" lon="-4.27454">
        <ele>56.8551025</ele>
        <time>2013-07-28T14:03:45Z</time>
      </trkpt>
      <trkpt lat="48.1641" lon="-4.27449">
        <ele>56.8551025</ele>
        <time>2013-07-28T14:04:00Z</time>
      </trkpt>
      <trkpt lat="48.16392" lon="-4.27441">
        <ele>56.8551025</ele>
        <time>2013-07-28T14:04:16Z</time>
      </trkpt>
      <trkpt lat="48.16374" lon="-4.27434">
        <ele>57.8165283</ele>
        <time>2013-07-28T14:04:32Z</time>
      </trkpt>
      <trkpt lat="48.16358" lon="-4.27427">
        <ele>57.3358154</ele>
        <time>2013-07-28T14:04:46Z</time>
      </trkpt>
      <trkpt lat="48.16341" lon="-4.27418">
        <ele>57.3358154</ele>
        <time>2013-07-28T14:05:02Z</time>
      </trkpt>
      <trkpt lat="48.16321" lon="-4.27405">
        <ele>57.8165283</ele>
        <time>2013-07-28T14:05:21Z</time>
      </trkpt>
      <trkpt lat="48.16303" lon="-4.27391">
        <ele>56.8551025</ele>
        <time>2013-07-28T14:05:39Z</time>
      </trkpt>
      <trkpt lat="48.16285" lon="-4.27374">
        <ele>57.3358154</ele>
        <time>2013-07-28T14:05:57Z</time>
      </trkpt>
      <trkpt lat="48.16265" lon="-4.27355">
        <ele>58.2971191</ele>
        <time>2013-07-28T14:06:18Z</time>
      </trkpt>
      <trkpt lat="48.16248" lon="-4.27336">
        <ele>61.1810303</ele>
        <time>2013-07-28T14:06:38Z</time>
      </trkpt>
      <trkpt lat="48.1623" lon="-4.27319">
        <ele>63.1036377</ele>
        <time>2013-07-28T14:06:57Z</time>
      </trkpt>
      <trkpt lat="48.16214" lon="-4.27302">
        <ele>64.5456543</ele>
        <time>2013-07-28T14:07:14Z</time>
      </trkpt>
      <trkpt lat="48.16195" lon="-4.27286">
        <ele>64.0650635</ele>
        <time>2013-07-28T14:07:32Z</time>
      </trkpt>
      <trkpt lat="48.16171" lon="-4.27269">
        <ele>62.142334</ele>
        <time>2013-07-28T14:07:53Z</time>
      </trkpt>
      <trkpt lat="48.1615" lon="-4.27258">
        <ele>63.5843506</ele>
        <time>2013-07-28T14:08:13Z</time>
      </trkpt>
      <trkpt lat="48.16122" lon="-4.27249">
        <ele>63.1036377</ele>
        <time>2013-07-28T14:08:33Z</time>
      </trkpt>
      <trkpt lat="48.16095" lon="-4.27243">
        <ele>61.6617432</ele>
        <time>2013-07-28T14:08:54Z</time>
      </trkpt>
      <trkpt lat="48.16073" lon="-4.27252">
        <ele>61.1810303</ele>
        <time>2013-07-28T14:09:12Z</time>
      </trkpt>
      <trkpt lat="48.16051" lon="-4.27256">
        <ele>59.7391357</ele>
        <time>2013-07-28T14:09:32Z</time>
      </trkpt>
      <trkpt lat="48.16027" lon="-4.27258">
        <ele>58.2971191</ele>
        <time>2013-07-28T14:09:51Z</time>
      </trkpt>
      <trkpt lat="48.15998" lon="-4.27262">
        <ele>57.8165283</ele>
        <time>2013-07-28T14:10:12Z</time>
      </trkpt>
      <trkpt lat="48.15973" lon="-4.2726">
        <ele>57.3358154</ele>
        <time>2013-07-28T14:10:35Z</time>
      </trkpt>
      <trkpt lat="48.15947" lon="-4.27252">
        <ele>56.8551025</ele>
        <time>2013-07-28T14:10:56Z</time>
      </trkpt>
      <trkpt lat="48.15924" lon="-4.27239">
        <ele>57.8165283</ele>
        <time>2013-07-28T14:11:15Z</time>
      </trkpt>
      <trkpt lat="48.159" lon="-4.27225">
        <ele>56.3745117</ele>
        <time>2013-07-28T14:11:37Z</time>
      </trkpt>
      <trkpt lat="48.15894" lon="-4.27221">
        <ele>56.3745117</ele>
        <time>2013-07-28T14:11:43Z</time>
      </trkpt>
      <trkpt lat="48.15869" lon="-4.27205">
        <ele>53.0097656</ele>
        <time>2013-07-28T14:12:05Z</time>
      </trkpt>
      <trkpt lat="48.15849" lon="-4.27184">
        <ele>51.0871582</ele>
        <time>2013-07-28T14:12:25Z</time>
      </trkpt>
      <trkpt lat="48.1583" lon="-4.27174">
        <ele>47.2418213</ele>
        <time>2013-07-28T14:12:41Z</time>
      </trkpt>
      <trkpt lat="48.15832" lon="-4.27167">
        <ele>46.7612305</ele>
        <time>2013-07-28T14:12:55Z</time>
      </trkpt>
      <trkpt lat="48.15832" lon="-4.27176">
        <ele>45.7999268</ele>
        <time>2013-07-28T14:14:10Z</time>
      </trkpt>
      <trkpt lat="48.15815" lon="-4.27177">
        <ele>44.838623</ele>
        <time>2013-07-28T14:14:24Z</time>
      </trkpt>
      <trkpt lat="48.15791" lon="-4.27177">
        <ele>42.4354248</ele>
        <time>2013-07-28T14:14:43Z</time>
      </trkpt>
      <trkpt lat="48.15775" lon="-4.27181">
        <ele>40.0321045</ele>
        <time>2013-07-28T14:14:58Z</time>
      </trkpt>
      <trkpt lat="48.15754" lon="-4.27185">
        <ele>36.6674805</ele>
        <time>2013-07-28T14:15:18Z</time>
      </trkpt>
      <trkpt lat="48.15748" lon="-4.27188">
        <ele>36.1867676</ele>
        <time>2013-07-28T14:15:35Z</time>
      </trkpt>
      <trkpt lat="48.15719" lon="-4.27195">
        <ele>35.7060547</ele>
        <time>2013-07-28T14:15:58Z</time>
      </trkpt>
      <trkpt lat="48.15695" lon="-4.27205">
        <ele>34.744873</ele>
        <time>2013-07-28T14:16:20Z</time>
      </trkpt>
      <trkpt lat="48.15673" lon="-4.27218">
        <ele>33.7834473</ele>
        <time>2013-07-28T14:16:41Z</time>
      </trkpt>
      <trkpt lat="48.15649" lon="-4.27248">
        <ele>31.8607178</ele>
        <time>2013-07-28T14:17:06Z</time>
      </trkpt>
      <trkpt lat="48.15634" lon="-4.27276">
        <ele>30.4188232</ele>
        <time>2013-07-28T14:17:28Z</time>
      </trkpt>
      <trkpt lat="48.15613" lon="-4.2731">
        <ele>28.9769287</ele>
        <time>2013-07-28T14:17:51Z</time>
      </trkpt>
      <trkpt lat="48.15598" lon="-4.27337">
        <ele>28.9769287</ele>
        <time>2013-07-28T14:18:12Z</time>
      </trkpt>
      <trkpt lat="48.15583" lon="-4.27368">
        <ele>28.0155029</ele>
        <time>2013-07-28T14:18:36Z</time>
      </trkpt>
      <trkpt lat="48.15563" lon="-4.27376">
        <ele>27.5349121</ele>
        <time>2013-07-28T14:18:54Z</time>
      </trkpt>
      <trkpt lat="48.15559" lon="-4.2738">
        <ele>27.0543213</ele>
        <time>2013-07-28T14:18:58Z</time>
      </trkpt>
      <trkpt lat="48.1554" lon="-4.27375">
        <ele>24.651001</ele>
        <time>2013-07-28T14:19:16Z</time>
      </trkpt>
    </trkseg>
  </trk>
</gpx>